Observation data for Palo Duro Canyon State Park Rim on 07/19/2019      Previous  Date  Next       Current Mesonet Observations  Soil Data  Daily Summary Page  Observations in Plain Language
KPD1 190500Z 17009KT 30/14 A2993 RMK A01 T03030142  RH  037%=      5-min Rain = 0
KPD1 190501Z 17010KT 30/14 A2993 RMK A01 T03030142  RH  037%=      5-min Rain = 0
KPD1 190502Z 16009KT 30/14 A2993 RMK A01 T03020141  RH  037%=      5-min Rain = 0
KPD1 190503Z 16007KT 30/14 A2993 RMK A01 T03030142  RH  037%=      5-min Rain = 0
KPD1 190504Z 16010G15KT 30/14 A2993 RMK A01 T03030141  RH  037%=      5-min Rain = 0
KPD1 190505Z 16011KT 30/14 A2993 RMK A01 T03030141  RH  037%=      5-min Rain = 0
KPD1 190506Z 16008G13KT 30/14 A2993 RMK A01 T03030142  RH  037%=      5-min Rain = 0
KPD1 190507Z 16011KT 30/14 A2993 RMK A01 T03030142  RH  037%=      5-min Rain = 0
KPD1 190508Z 16010KT 30/14 A2993 RMK A01 T03030142  RH  037%=      5-min Rain = 0
KPD1 190509Z 17010KT 30/14 A2993 RMK A01 T03030142  RH  037%=      5-min Rain = 0
KPD1 190510Z 17009KT 30/14 A2993 RMK A01 T03030142  RH  037%=      5-min Rain = 0
KPD1 190511Z 16010G15KT 30/14 A2993 RMK A01 T03030142  RH  037%=      5-min Rain = 0
KPD1 190512Z 16010KT 30/14 A2993 RMK A01 T03030141  RH  037%=      5-min Rain = 0
KPD1 190513Z 17008KT 30/14 A2993 RMK A01 T03020141  RH  037%=      5-min Rain = 0
KPD1 190514Z 17008KT 30/14 A2993 RMK A01 T03030142  RH  037%=      5-min Rain = 0
KPD1 190515Z 17011KT 30/14 A2993 RMK A01 T03020142  RH  038%=      5-min Rain = 0
KPD1 190516Z 17010KT 30/14 A2993 RMK A01 T03010141  RH  038%=      5-min Rain = 0
KPD1 190517Z 17010G15KT 30/14 A2993 RMK A01 T03010141  RH  038%=      5-min Rain = 0
KPD1 190518Z 16011KT 30/14 A2993 RMK A01 T03010141  RH  038%=      5-min Rain = 0
KPD1 190519Z 17011KT 30/14 A2993 RMK A01 T03010141  RH  038%=      5-min Rain = 0
KPD1 190520Z 17012KT 30/14 A2993 RMK A01 T03010141  RH  038%=      5-min Rain = 0
KPD1 190521Z 17012KT 30/14 A2993 RMK A01 T03010141  RH  038%=      5-min Rain = 0
KPD1 190522Z 16010KT 30/14 A2993 RMK A01 T03010141  RH  038%=      5-min Rain = 0
KPD1 190523Z 17010KT 30/14 A2993 RMK A01 T03010141  RH  038%=      5-min Rain = 0
KPD1 190524Z 17012KT 30/14 A2994 RMK A01 T03010141  RH  038%=      5-min Rain = 0
KPD1 190525Z 17009KT 30/14 A2994 RMK A01 T03010142  RH  038%=      5-min Rain = 0
KPD1 190526Z 16008KT 30/14 A2994 RMK A01 T03010141  RH  038%=      5-min Rain = 0
KPD1 190527Z 15007KT 30/14 A2994 RMK A01 T03000141  RH  038%=      5-min Rain = 0
KPD1 190528Z 15007KT 30/14 A2993 RMK A01 T03000141  RH  038%=      5-min Rain = 0
KPD1 190529Z 17010KT 30/14 A2993 RMK A01 T02990141  RH  038%=      5-min Rain = 0
KPD1 190530Z 17012G18KT 30/14 A2993 RMK A01 T02980141  RH  038%=      5-min Rain = 0
KPD1 190531Z 16018G23KT 30/14 A2993 RMK A01 T02980141  RH  038%=      5-min Rain = 0
KPD1 190532Z 17012KT 30/14 A2994 RMK A01 T02990141  RH  038%=      5-min Rain = 0
KPD1 190533Z 17012KT 30/14 A2994 RMK A01 T03000142  RH  038%=      5-min Rain = 0
KPD1 190534Z 16010KT 30/14 A2994 RMK A01 T02990142  RH  038%=      5-min Rain = 0
KPD1 190535Z 16008KT 30/14 A2994 RMK A01 T02990142  RH  038%=      5-min Rain = 0
KPD1 190536Z 16008KT 30/14 A2994 RMK A01 T02980142  RH  039%=      5-min Rain = 0
KPD1 190537Z 16015KT 30/14 A2994 RMK A01 T02970142  RH  039%=      5-min Rain = 0
KPD1 190538Z 17013KT 30/14 A2994 RMK A01 T02970141  RH  039%=      5-min Rain = 0
KPD1 190539Z 17010KT 30/14 A2994 RMK A01 T02980142  RH  039%=      5-min Rain = 0
KPD1 190540Z 17009KT 30/14 A2994 RMK A01 T02970141  RH  039%=      5-min Rain = 0
KPD1 190541Z 16012KT 30/14 A2994 RMK A01 T02970142  RH  039%=      5-min Rain = 0
KPD1 190542Z 17010KT 30/14 A2994 RMK A01 T02960142  RH  039%=      5-min Rain = 0
KPD1 190543Z 16010KT 30/14 A2994 RMK A01 T02960142  RH  039%=      5-min Rain = 0
KPD1 190544Z 15011KT 30/14 A2994 RMK A01 T02950142  RH  039%=      5-min Rain = 0
KPD1 190545Z 15011KT 30/14 A2994 RMK A01 T02960142  RH  039%=      5-min Rain = 0
KPD1 190546Z 16010KT 30/14 A2994 RMK A01 T02960142  RH  039%=      5-min Rain = 0
KPD1 190547Z 16011KT 30/14 A2994 RMK A01 T02960142  RH  039%=      5-min Rain = 0
KPD1 190548Z 17012KT 30/14 A2994 RMK A01 T02960142  RH  039%=      5-min Rain = 0
KPD1 190549Z 16011KT 30/14 A2994 RMK A01 T02950142  RH  039%=      5-min Rain = 0
KPD1 190550Z 15010KT 29/14 A2994 RMK A01 T02940142  RH  039%=      5-min Rain = 0
KPD1 190551Z 17009KT 29/14 A2994 RMK A01 T02930142  RH  040%=      5-min Rain = 0
KPD1 190552Z 16007KT 29/14 A2994 RMK A01 T02930142  RH  040%=      5-min Rain = 0
KPD1 190553Z 15012KT 29/14 A2994 RMK A01 T02920142  RH  040%=      5-min Rain = 0
KPD1 190554Z 16009KT 29/14 A2994 RMK A01 T02920142  RH  040%=      5-min Rain = 0
KPD1 190555Z 16007KT 29/14 A2994 RMK A01 T02920142  RH  040%=      5-min Rain = 0
KPD1 190556Z 17007KT 29/14 A2994 RMK A01 T02930143  RH  040%=      5-min Rain = 0
KPD1 190557Z 15009G16KT 29/14 A2994 RMK A01 T02910142  RH  040%=      5-min Rain = 0
KPD1 190558Z 16010KT 29/14 A2994 RMK A01 T02910142  RH  040%=      5-min Rain = 0
KPD1 190559Z 16008KT 29/14 A2994 RMK A01 T02900142  RH  040%=      5-min Rain = 0
KPD1 190600Z 16008KT 29/14 A2994 RMK A01 T02910142  RH  040%=      5-min Rain = 0
KPD1 190601Z 16007KT 29/14 A2994 RMK A01 T02900142  RH  040%=      5-min Rain = 0
KPD1 190602Z 17009KT 29/14 A2994 RMK A01 T02900142  RH  040%=      5-min Rain = 0
KPD1 190603Z 16007KT 29/14 A2994 RMK A01 T02900142  RH  041%=      5-min Rain = 0
KPD1 190604Z 16007KT 29/14 A2994 RMK A01 T02890143  RH  041%=      5-min Rain = 0
KPD1 190605Z 15008KT 29/14 A2994 RMK A01 T02880142  RH  041%=      5-min Rain = 0
KPD1 190606Z 17009KT 29/14 A2994 RMK A01 T02870142  RH  041%=      5-min Rain = 0
KPD1 190607Z 16012KT 29/14 A2994 RMK A01 T02870143  RH  041%=      5-min Rain = 0
KPD1 190608Z 16011KT 29/14 A2994 RMK A01 T02870143  RH  041%=      5-min Rain = 0
KPD1 190609Z 17011KT 29/14 A2994 RMK A01 T02870143  RH  041%=      5-min Rain = 0
KPD1 190610Z 16008KT 29/14 A2994 RMK A01 T02880143  RH  041%=      5-min Rain = 0
KPD1 190611Z 16008KT 29/14 A2994 RMK A01 T02880143  RH  041%=      5-min Rain = 0
KPD1 190612Z 16009KT 29/14 A2994 RMK A01 T02880144  RH  041%=      5-min Rain = 0
KPD1 190613Z 17010KT 29/14 A2994 RMK A01 T02870143  RH  041%=      5-min Rain = 0
KPD1 190614Z 17009KT 29/14 A2994 RMK A01 T02870144  RH  041%=      5-min Rain = 0
KPD1 190615Z 17008KT 29/14 A2994 RMK A01 T02870143  RH  041%=      5-min Rain = 0
KPD1 190616Z 17009KT 29/14 A2994 RMK A01 T02860143  RH  042%=      5-min Rain = 0
KPD1 190617Z 17010KT 29/14 A2994 RMK A01 T02860143  RH  042%=      5-min Rain = 0
KPD1 190618Z 17009KT 29/14 A2994 RMK A01 T02860143  RH  042%=      5-min Rain = 0
KPD1 190619Z 17008KT 29/14 A2994 RMK A01 T02850143  RH  042%=      5-min Rain = 0
KPD1 190620Z 16010G15KT 29/14 A2994 RMK A01 T02860144  RH  042%=      5-min Rain = 0
KPD1 190621Z 16009KT 29/14 A2994 RMK A01 T02850143  RH  042%=      5-min Rain = 0
KPD1 190622Z 16010KT 29/14 A2994 RMK A01 T02850143  RH  042%=      5-min Rain = 0
KPD1 190623Z 16010KT 29/14 A2994 RMK A01 T02850143  RH  042%=      5-min Rain = 0
KPD1 190624Z 16008KT 29/14 A2994 RMK A01 T02850143  RH  042%=      5-min Rain = 0
KPD1 190625Z 16008KT 29/14 A2994 RMK A01 T02850143  RH  042%=      5-min Rain = 0
KPD1 190626Z 17008KT 28/14 A2994 RMK A01 T02840143  RH  042%=      5-min Rain = 0
KPD1 190627Z 16007KT 28/14 A2994 RMK A01 T02830143  RH  042%=      5-min Rain = 0
KPD1 190628Z 16008KT 28/14 A2994 RMK A01 T02820143  RH  042%=      5-min Rain = 0
KPD1 190629Z 16009KT 28/14 A2994 RMK A01 T02820143  RH  043%=      5-min Rain = 0
KPD1 190630Z 16010KT 28/14 A2994 RMK A01 T02820144  RH  043%=      5-min Rain = 0
KPD1 190631Z 16010KT 28/14 A2994 RMK A01 T02810143  RH  043%=      5-min Rain = 0
KPD1 190632Z 16009KT 28/14 A2994 RMK A01 T02810143  RH  043%=      5-min Rain = 0
KPD1 190633Z 17009KT 28/14 A2994 RMK A01 T02820144  RH  043%=      5-min Rain = 0
KPD1 190634Z 17008KT 28/14 A2994 RMK A01 T02810143  RH  043%=      5-min Rain = 0
KPD1 190635Z 17009KT 28/14 A2994 RMK A01 T02810143  RH  043%=      5-min Rain = 0
KPD1 190636Z 16008KT 28/14 A2994 RMK A01 T02810144  RH  043%=      5-min Rain = 0
KPD1 190637Z 17008KT 28/14 A2994 RMK A01 T02800143  RH  043%=      5-min Rain = 0
KPD1 190638Z 16007KT 28/14 A2994 RMK A01 T02800144  RH  043%=      5-min Rain = 0
KPD1 190639Z 17008G14KT 28/14 A2994 RMK A01 T02800144  RH  043%=      5-min Rain = 0
KPD1 190640Z 17010KT 28/14 A2994 RMK A01 T02790143  RH  043%=      5-min Rain = 0
KPD1 190641Z 17010KT 28/14 A2994 RMK A01 T02780143  RH  044%=      5-min Rain = 0
KPD1 190642Z 16008KT 28/14 A2994 RMK A01 T02790144  RH  044%=      5-min Rain = 0
KPD1 190643Z 16008KT 28/14 A2994 RMK A01 T02780144  RH  044%=      5-min Rain = 0
KPD1 190644Z 16009KT 28/14 A2994 RMK A01 T02780144  RH  044%=      5-min Rain = 0
KPD1 190645Z 17007KT 28/14 A2994 RMK A01 T02780144  RH  044%=      5-min Rain = 0
KPD1 190646Z 17009KT 28/14 A2994 RMK A01 T02780144  RH  044%=      5-min Rain = 0
KPD1 190647Z 17009KT 28/14 A2994 RMK A01 T02780144  RH  044%=      5-min Rain = 0
KPD1 190648Z 16010KT 28/14 A2994 RMK A01 T02770143  RH  044%=      5-min Rain = 0
KPD1 190649Z 17008KT 28/14 A2994 RMK A01 T02770144  RH  044%=      5-min Rain = 0
KPD1 190650Z 16007KT 28/14 A2994 RMK A01 T02760144  RH  044%=      5-min Rain = 0
KPD1 190651Z 17009KT 28/15 A2994 RMK A01 T02770145  RH  044%=      5-min Rain = 0
KPD1 190652Z 17007KT 28/14 A2994 RMK A01 T02760144  RH  044%=      5-min Rain = 0
KPD1 190653Z 17008KT 28/15 A2994 RMK A01 T02760145  RH  045%=      5-min Rain = 0
KPD1 190654Z 17009KT 28/14 A2994 RMK A01 T02760144  RH  045%=      5-min Rain = 0
KPD1 190655Z 16008KT 28/15 A2994 RMK A01 T02760145  RH  045%=      5-min Rain = 0
KPD1 190656Z 16008KT 28/14 A2994 RMK A01 T02750144  RH  045%=      5-min Rain = 0
KPD1 190657Z 16008KT 28/14 A2994 RMK A01 T02750144  RH  045%=      5-min Rain = 0
KPD1 190658Z 16008KT 28/15 A2994 RMK A01 T02750145  RH  045%=      5-min Rain = 0
KPD1 190659Z 16010KT 27/14 A2994 RMK A01 T02740144  RH  045%=      5-min Rain = 0
KPD1 190700Z 16008KT 27/15 A2994 RMK A01 T02740145  RH  045%=      5-min Rain = 0
KPD1 190701Z 17009KT 27/14 A2995 RMK A01 T02740144  RH  045%=      5-min Rain = 0
KPD1 190702Z 15011KT 27/15 A2994 RMK A01 T02740145  RH  045%=      5-min Rain = 0
KPD1 190703Z 16009KT 28/15 A2994 RMK A01 T02750145  RH  045%=      5-min Rain = 0
KPD1 190704Z 17007KT 28/15 A2995 RMK A01 T02750145  RH  045%=      5-min Rain = 0
KPD1 190705Z 16009KT 28/15 A2995 RMK A01 T02750145  RH  045%=      5-min Rain = 0
KPD1 190706Z 17009KT 28/15 A2994 RMK A01 T02750145  RH  045%=      5-min Rain = 0
KPD1 190707Z 17010KT 27/15 A2995 RMK A01 T02740145  RH  045%=      5-min Rain = 0
KPD1 190708Z 16009KT 27/15 A2995 RMK A01 T02740145  RH  045%=      5-min Rain = 0
KPD1 190709Z 17010KT 27/15 A2995 RMK A01 T02740146  RH  045%=      5-min Rain = 0
KPD1 190710Z 16010KT 27/15 A2995 RMK A01 T02740145  RH  045%=      5-min Rain = 0
KPD1 190711Z 16009KT 27/15 A2995 RMK A01 T02740146  RH  045%=      5-min Rain = 0
KPD1 190712Z 16008KT 27/15 A2995 RMK A01 T02740146  RH  045%=      5-min Rain = 0
KPD1 190713Z 17007KT 27/15 A2995 RMK A01 T02740146  RH  046%=      5-min Rain = 0
KPD1 190714Z 17009KT 27/15 A2995 RMK A01 T02730146  RH  046%=      5-min Rain = 0
KPD1 190715Z 16007KT 27/15 A2995 RMK A01 T02720146  RH  046%=      5-min Rain = 0
KPD1 190716Z 18010KT 27/15 A2995 RMK A01 T02720146  RH  046%=      5-min Rain = 0
KPD1 190717Z 18009KT 27/15 A2995 RMK A01 T02720146  RH  046%=      5-min Rain = 0
KPD1 190718Z 16006KT 27/15 A2995 RMK A01 T02720146  RH  046%=      5-min Rain = 0
KPD1 190719Z 16007G12KT 27/15 A2995 RMK A01 T02720146  RH  046%=      5-min Rain = 0
KPD1 190720Z 17010KT 27/15 A2995 RMK A01 T02720146  RH  046%=      5-min Rain = 0
KPD1 190721Z 16011KT 27/15 A2995 RMK A01 T02720147  RH  046%=      5-min Rain = 0
KPD1 190722Z 16009KT 27/15 A2995 RMK A01 T02720147  RH  046%=      5-min Rain = 0
KPD1 190723Z 17008KT 27/15 A2995 RMK A01 T02720147  RH  046%=      5-min Rain = 0
KPD1 190724Z 17011KT 27/15 A2995 RMK A01 T02720147  RH  046%=      5-min Rain = 0
KPD1 190725Z 16006KT 27/15 A2995 RMK A01 T02720147  RH  046%=      5-min Rain = 0
KPD1 190726Z 16007KT 27/15 A2995 RMK A01 T02720147  RH  046%=      5-min Rain = 0
KPD1 190727Z 18010G15KT 27/15 A2995 RMK A01 T02710147  RH  047%=      5-min Rain = 0
KPD1 190728Z 17005KT 27/15 A2995 RMK A01 T02710148  RH  047%=      5-min Rain = 0
KPD1 190729Z 17007KT 27/15 A2995 RMK A01 T02700147  RH  047%=      5-min Rain = 0
KPD1 190730Z 17009KT 27/15 A2995 RMK A01 T02690147  RH  047%=      5-min Rain = 0
KPD1 190731Z 18008KT 27/15 A2995 RMK A01 T02690148  RH  047%=      5-min Rain = 0
KPD1 190732Z 17007KT 27/15 A2995 RMK A01 T02690148  RH  047%=      5-min Rain = 0
KPD1 190733Z 18009KT 27/15 A2995 RMK A01 T02690148  RH  047%=      5-min Rain = 0
KPD1 190734Z 17009KT 27/15 A2995 RMK A01 T02690148  RH  047%=      5-min Rain = 0
KPD1 190735Z 17008KT 27/15 A2995 RMK A01 T02690148  RH  048%=      5-min Rain = 0
KPD1 190736Z 17007KT 27/15 A2995 RMK A01 T02680148  RH  048%=      5-min Rain = 0
KPD1 190737Z 16009KT 27/15 A2994 RMK A01 T02690149  RH  048%=      5-min Rain = 0
KPD1 190738Z 17010KT 27/15 A2995 RMK A01 T02680149  RH  048%=      5-min Rain = 0
KPD1 190739Z 18008KT 27/15 A2995 RMK A01 T02680148  RH  048%=      5-min Rain = 0
KPD1 190740Z 18008KT 27/15 A2995 RMK A01 T02680149  RH  048%=      5-min Rain = 0
KPD1 190741Z 17007KT 27/15 A2995 RMK A01 T02680148  RH  048%=      5-min Rain = 0
KPD1 190742Z 17007KT 27/15 A2995 RMK A01 T02680149  RH  048%=      5-min Rain = 0
KPD1 190743Z 18007KT 27/15 A2995 RMK A01 T02680149  RH  048%=      5-min Rain = 0
KPD1 190744Z 17006KT 27/15 A2995 RMK A01 T02670149  RH  048%=      5-min Rain = 0
KPD1 190745Z 17007KT 27/15 A2995 RMK A01 T02660149  RH  049%=      5-min Rain = 0
KPD1 190746Z 17007KT 27/15 A2995 RMK A01 T02650149  RH  049%=      5-min Rain = 0
KPD1 190747Z 17007KT 27/15 A2995 RMK A01 T02660149  RH  049%=      5-min Rain = 0
KPD1 190748Z 17008KT 27/15 A2995 RMK A01 T02660150  RH  049%=      5-min Rain = 0
KPD1 190749Z 17008KT 27/15 A2995 RMK A01 T02650150  RH  049%=      5-min Rain = 0
KPD1 190750Z 17007KT 27/15 A2994 RMK A01 T02650150  RH  049%=      5-min Rain = 0
KPD1 190751Z 17007KT 27/15 A2995 RMK A01 T02660150  RH  049%=      5-min Rain = 0
KPD1 190752Z 17007KT 27/15 A2994 RMK A01 T02650150  RH  049%=      5-min Rain = 0
KPD1 190753Z 18007KT 27/15 A2994 RMK A01 T02650151  RH  049%=      5-min Rain = 0
KPD1 190754Z 17006KT 27/15 A2994 RMK A01 T02650151  RH  049%=      5-min Rain = 0
KPD1 190755Z 17008KT 27/15 A2994 RMK A01 T02660151  RH  049%=      5-min Rain = 0
KPD1 190756Z 18007KT 27/15 A2994 RMK A01 T02660152  RH  049%=      5-min Rain = 0
KPD1 190757Z 17009KT 27/15 A2994 RMK A01 T02670152  RH  049%=      5-min Rain = 0
KPD1 190758Z 16010KT 27/15 A2994 RMK A01 T02670152  RH  049%=      5-min Rain = 0
KPD1 190759Z 17007KT 27/15 A2994 RMK A01 T02680153  RH  049%=      5-min Rain = 0
KPD1 190800Z 17008G13KT 27/15 A2994 RMK A01 T02680153  RH  049%=      5-min Rain = 0
KPD1 190801Z 18010KT 27/15 A2994 RMK A01 T02680153  RH  049%=      5-min Rain = 0
KPD1 190802Z 17008KT 27/15 A2994 RMK A01 T02690153  RH  049%=      5-min Rain = 0
KPD1 190803Z 16007KT 27/15 A2994 RMK A01 T02690153  RH  049%=      5-min Rain = 0
KPD1 190804Z 16008KT 27/15 A2994 RMK A01 T02690153  RH  049%=      5-min Rain = 0
KPD1 190805Z 17007KT 27/15 A2994 RMK A01 T02680154  RH  049%=      5-min Rain = 0
KPD1 190806Z 17008KT 27/15 A2994 RMK A01 T02680154  RH  049%=      5-min Rain = 0
KPD1 190807Z 17008KT 27/15 A2994 RMK A01 T02680154  RH  050%=      5-min Rain = 0
KPD1 190808Z 17010KT 27/15 A2994 RMK A01 T02670154  RH  050%=      5-min Rain = 0
KPD1 190809Z 17009KT 27/16 A2994 RMK A01 T02680155  RH  050%=      5-min Rain = 0
KPD1 190810Z 17010KT 27/16 A2994 RMK A01 T02680155  RH  050%=      5-min Rain = 0
KPD1 190811Z 17010KT 27/16 A2994 RMK A01 T02680155  RH  050%=      5-min Rain = 0
KPD1 190812Z 17009G14KT 27/16 A2994 RMK A01 T02690155  RH  050%=      5-min Rain = 0
KPD1 190813Z 16007KT 27/16 A2994 RMK A01 T02690155  RH  050%=      5-min Rain = 0
KPD1 190814Z 16009KT 27/16 A2994 RMK A01 T02690155  RH  050%=      5-min Rain = 0
KPD1 190815Z 16009KT 27/16 A2994 RMK A01 T02690155  RH  050%=      5-min Rain = 0
KPD1 190816Z 16011KT 27/16 A2994 RMK A01 T02690155  RH  050%=      5-min Rain = 0
KPD1 190817Z 18010KT 27/16 A2994 RMK A01 T02690156  RH  050%=      5-min Rain = 0
KPD1 190818Z 17007KT 27/16 A2994 RMK A01 T02690156  RH  050%=      5-min Rain = 0
KPD1 190819Z 18008KT 27/16 A2994 RMK A01 T02700156  RH  050%=      5-min Rain = 0
KPD1 190820Z 16011KT 27/16 A2994 RMK A01 T02700157  RH  050%=      5-min Rain = 0
KPD1 190821Z 17009G14KT 27/16 A2994 RMK A01 T02690157  RH  050%=      5-min Rain = 0
KPD1 190822Z 18010KT 27/16 A2994 RMK A01 T02690156  RH  050%=      5-min Rain = 0
KPD1 190823Z 17011G18KT 27/16 A2994 RMK A01 T02700157  RH  050%=      5-min Rain = 0
KPD1 190824Z 19011KT 27/16 A2994 RMK A01 T02700157  RH  050%=      5-min Rain = 0
KPD1 190825Z 18010KT 27/16 A2994 RMK A01 T02700157  RH  050%=      5-min Rain = 0
KPD1 190826Z 17009KT 27/16 A2994 RMK A01 T02710157  RH  050%=      5-min Rain = 0
KPD1 190827Z 17009KT 27/16 A2994 RMK A01 T02710157  RH  050%=      5-min Rain = 0
KPD1 190828Z 17012G17KT 27/16 A2994 RMK A01 T02700157  RH  050%=      5-min Rain = 0
KPD1 190829Z 17015KT 27/16 A2994 RMK A01 T02700157  RH  050%=      5-min Rain = 0
KPD1 190830Z 16008G13KT 27/16 A2994 RMK A01 T02710157  RH  050%=      5-min Rain = 0
KPD1 190831Z 17008G18KT 27/16 A2994 RMK A01 T02720158  RH  050%=      5-min Rain = 0
KPD1 190832Z 18013G20KT 27/16 A2994 RMK A01 T02710157  RH  050%=      5-min Rain = 0
KPD1 190833Z 17011KT 27/16 A2994 RMK A01 T02720158  RH  050%=      5-min Rain = 0
KPD1 190834Z 17012KT 27/16 A2994 RMK A01 T02710158  RH  050%=      5-min Rain = 0
KPD1 190835Z 18013G19KT 27/16 A2994 RMK A01 T02710158  RH  050%=      5-min Rain = 0
KPD1 190836Z 18011KT 27/16 A2994 RMK A01 T02720158  RH  050%=      5-min Rain = 0
KPD1 190837Z 17015KT 27/16 A2994 RMK A01 T02720158  RH  050%=      5-min Rain = 0
KPD1 190838Z 18015G20KT 27/16 A2994 RMK A01 T02720158  RH  050%=      5-min Rain = 0
KPD1 190839Z 18010KT 27/16 A2994 RMK A01 T02720158  RH  050%=      5-min Rain = 0
KPD1 190840Z 18012KT 27/16 A2994 RMK A01 T02720158  RH  050%=      5-min Rain = 0
KPD1 190841Z 17013G18KT 27/16 A2994 RMK A01 T02720158  RH  050%=      5-min Rain = 0
KPD1 190842Z 18013KT 27/16 A2994 RMK A01 T02720158  RH  050%=      5-min Rain = 0
KPD1 190843Z 17014G21KT 27/16 A2994 RMK A01 T02710158  RH  050%=      5-min Rain = 0
KPD1 190844Z 17010KT 27/16 A2994 RMK A01 T02720158  RH  050%=      5-min Rain = 0
KPD1 190845Z 16009G14KT 27/16 A2994 RMK A01 T02720158  RH  050%=      5-min Rain = 0
KPD1 190846Z 17013G21KT 27/16 A2994 RMK A01 T02710158  RH  050%=      5-min Rain = 0
KPD1 190847Z 19012G17KT 27/16 A2994 RMK A01 T02710157  RH  050%=      5-min Rain = 0
KPD1 190848Z 18008KT 27/16 A2994 RMK A01 T02710158  RH  050%=      5-min Rain = 0
KPD1 190849Z 18008KT 27/16 A2994 RMK A01 T02700157  RH  050%=      5-min Rain = 0
KPD1 190850Z 19009G16KT 27/16 A2994 RMK A01 T02700157  RH  050%=      5-min Rain = 0
KPD1 190851Z 19012G18KT 27/16 A2994 RMK A01 T02700158  RH  050%=      5-min Rain = 0
KPD1 190852Z 18012G17KT 27/16 A2994 RMK A01 T02700158  RH  050%=      5-min Rain = 0
KPD1 190853Z 19012KT 27/16 A2994 RMK A01 T02690157  RH  050%=      5-min Rain = 0
KPD1 190854Z 18015KT 27/16 A2994 RMK A01 T02700158  RH  050%=      5-min Rain = 0
KPD1 190855Z 18012G18KT 27/16 A2994 RMK A01 T02690157  RH  050%=      5-min Rain = 0
KPD1 190856Z 18014KT 27/16 A2994 RMK A01 T02700158  RH  050%=      5-min Rain = 0
KPD1 190857Z 18010G15KT 27/16 A2994 RMK A01 T02700157  RH  050%=      5-min Rain = 0
KPD1 190858Z 18009G14KT 27/16 A2994 RMK A01 T02690157  RH  050%=      5-min Rain = 0
KPD1 190859Z 19015G20KT 27/16 A2994 RMK A01 T02690158  RH  050%=      5-min Rain = 0
KPD1 190900Z 18012KT 27/16 A2994 RMK A01 T02690157  RH  050%=      5-min Rain = 0
KPD1 190901Z 18010G16KT 27/16 A2994 RMK A01 T02690157  RH  050%=      5-min Rain = 0
KPD1 190902Z 19011KT 27/16 A2994 RMK A01 T02690158  RH  050%=      5-min Rain = 0
KPD1 190903Z 18011KT 27/16 A2994 RMK A01 T02690157  RH  050%=      5-min Rain = 0
KPD1 190904Z 18010G17KT 27/16 A2994 RMK A01 T02690158  RH  051%=      5-min Rain = 0
KPD1 190905Z 18013G22KT 27/16 A2994 RMK A01 T02680158  RH  051%=      5-min Rain = 0
KPD1 190906Z 19016G21KT 27/16 A2994 RMK A01 T02680157  RH  051%=      5-min Rain = 0
KPD1 190907Z 18014G20KT 27/16 A2994 RMK A01 T02680157  RH  051%=      5-min Rain = 0
KPD1 190908Z 19016G25KT 27/16 A2994 RMK A01 T02680157  RH  051%=      5-min Rain = 0
KPD1 190909Z 19015G21KT 27/16 A2994 RMK A01 T02680157  RH  050%=      5-min Rain = 0
KPD1 190910Z 19012KT 27/16 A2994 RMK A01 T02690157  RH  050%=      5-min Rain = 0
KPD1 190911Z 18014G19KT 27/16 A2994 RMK A01 T02690157  RH  050%=      5-min Rain = 0
KPD1 190912Z 19014KT 27/16 A2994 RMK A01 T02690157  RH  050%=      5-min Rain = 0
KPD1 190913Z 19014G19KT 27/16 A2994 RMK A01 T02690158  RH  051%=      5-min Rain = 0
KPD1 190914Z 18012G17KT 27/16 A2994 RMK A01 T02680157  RH  051%=      5-min Rain = 0
KPD1 190915Z 19014KT 27/16 A2994 RMK A01 T02690158  RH  051%=      5-min Rain = 0
KPD1 190916Z 19014G19KT 27/16 A2994 RMK A01 T02680157  RH  051%=      5-min Rain = 0
KPD1 190917Z 18017KT 27/16 A2994 RMK A01 T02680157  RH  051%=      5-min Rain = 0
KPD1 190918Z 18018G27KT 27/16 A2994 RMK A01 T02680157  RH  051%=      5-min Rain = 0
KPD1 190919Z 18012KT 27/16 A2994 RMK A01 T02680157  RH  051%=      5-min Rain = 0
KPD1 190920Z 19014G19KT 27/16 A2994 RMK A01 T02680157  RH  051%=      5-min Rain = 0
KPD1 190921Z 18013KT 27/16 A2994 RMK A01 T02680157  RH  051%=      5-min Rain = 0
KPD1 190922Z 17013KT 27/16 A2994 RMK A01 T02670157  RH  051%=      5-min Rain = 0
KPD1 190923Z 18016G22KT 27/16 A2994 RMK A01 T02670157  RH  051%=      5-min Rain = 0
KPD1 190924Z 18017G23KT 27/16 A2994 RMK A01 T02670157  RH  051%=      5-min Rain = 0
KPD1 190925Z 18017G22KT 27/16 A2994 RMK A01 T02670156  RH  051%=      5-min Rain = 0
KPD1 190926Z 18014G19KT 27/16 A2994 RMK A01 T02670156  RH  050%=      5-min Rain = 0
KPD1 190927Z 17015G21KT 27/16 A2994 RMK A01 T02680156  RH  050%=      5-min Rain = 0
KPD1 190928Z 18014G19KT 27/16 A2994 RMK A01 T02680156  RH  050%=      5-min Rain = 0
KPD1 190929Z 19019G25KT 27/16 A2994 RMK A01 T02680156  RH  050%=      5-min Rain = 0
KPD1 190930Z 18015KT 27/16 A2994 RMK A01 T02680156  RH  050%=      5-min Rain = 0
KPD1 190931Z 17015G20KT 27/16 A2994 RMK A01 T02680156  RH  050%=      5-min Rain = 0
KPD1 190932Z 18013G22KT 27/16 A2994 RMK A01 T02680156  RH  050%=      5-min Rain = 0
KPD1 190933Z 18017KT 27/16 A2994 RMK A01 T02670155  RH  050%=      5-min Rain = 0
KPD1 190934Z 18017G24KT 27/16 A2994 RMK A01 T02670155  RH  050%=      5-min Rain = 0
KPD1 190935Z 18019G24KT 27/16 A2994 RMK A01 T02670155  RH  050%=      5-min Rain = 0
KPD1 190936Z 18017KT 27/15 A2994 RMK A01 T02670154  RH  050%=      5-min Rain = 0
KPD1 190937Z 18015G21KT 27/15 A2994 RMK A01 T02670154  RH  050%=      5-min Rain = 0
KPD1 190938Z 19017G23KT 27/16 A2994 RMK A01 T02670155  RH  050%=      5-min Rain = 0
KPD1 190939Z 19015G22KT 27/15 A2994 RMK A01 T02670154  RH  050%=      5-min Rain = 0
KPD1 190940Z 18014G19KT 27/15 A2994 RMK A01 T02670154  RH  050%=      5-min Rain = 0
KPD1 190941Z 18020KT 27/15 A2994 RMK A01 T02670154  RH  050%=      5-min Rain = 0
KPD1 190942Z 18016KT 27/15 A2994 RMK A01 T02660154  RH  050%=      5-min Rain = 0
KPD1 190943Z 18017KT 27/15 A2994 RMK A01 T02670154  RH  050%=      5-min Rain = 0
KPD1 190944Z 19016G21KT 27/15 A2994 RMK A01 T02670154  RH  050%=      5-min Rain = 0
KPD1 190945Z 18016G21KT 27/15 A2994 RMK A01 T02660153  RH  050%=      5-min Rain = 0
KPD1 190946Z 18014G19KT 27/15 A2994 RMK A01 T02670153  RH  050%=      5-min Rain = 0
KPD1 190947Z 18015KT 27/15 A2994 RMK A01 T02670154  RH  050%=      5-min Rain = 0
KPD1 190948Z 18017KT 27/15 A2994 RMK A01 T02660153  RH  050%=      5-min Rain = 0
KPD1 190949Z 18014G19KT 27/15 A2994 RMK A01 T02660154  RH  050%=      5-min Rain = 0
KPD1 190950Z 18014G26KT 27/15 A2994 RMK A01 T02660153  RH  050%=      5-min Rain = 0
KPD1 190951Z 18014KT 27/15 A2994 RMK A01 T02660153  RH  050%=      5-min Rain = 0
KPD1 190952Z 17014G19KT 27/15 A2994 RMK A01 T02650153  RH  050%=      5-min Rain = 0
KPD1 190953Z 18016G24KT 27/15 A2994 RMK A01 T02650153  RH  050%=      5-min Rain = 0
KPD1 190954Z 18012G19KT 27/15 A2994 RMK A01 T02650153  RH  050%=      5-min Rain = 0
KPD1 190955Z 18011KT 27/15 A2994 RMK A01 T02650153  RH  050%=      5-min Rain = 0
KPD1 190956Z 19015G27KT 26/15 A2994 RMK A01 T02640153  RH  050%=      5-min Rain = 0
KPD1 190957Z 19015G21KT 26/15 A2994 RMK A01 T02640152  RH  050%=      5-min Rain = 0
KPD1 190958Z 18015G22KT 26/15 A2994 RMK A01 T02640152  RH  050%=      5-min Rain = 0
KPD1 190959Z 18017G25KT 26/15 A2994 RMK A01 T02640152  RH  050%=      5-min Rain = 0
KPD1 191000Z 18017G23KT 26/15 A2994 RMK A01 T02640152  RH  050%=      5-min Rain = 0
KPD1 191001Z 18014G21KT 26/15 A2994 RMK A01 T02640152  RH  050%=      5-min Rain = 0
KPD1 191002Z 18015KT 26/15 A2994 RMK A01 T02640151  RH  050%=      5-min Rain = 0
KPD1 191003Z 18015G22KT 26/15 A2994 RMK A01 T02640152  RH  050%=      5-min Rain = 0
KPD1 191004Z 18018KT 26/15 A2994 RMK A01 T02640151  RH  050%=      5-min Rain = 0
KPD1 191005Z 18013G18KT 27/15 A2994 RMK A01 T02650152  RH  050%=      5-min Rain = 0
KPD1 191006Z 19016G24KT 26/15 A2994 RMK A01 T02640151  RH  050%=      5-min Rain = 0
KPD1 191007Z 17017G28KT 27/15 A2994 RMK A01 T02650152  RH  050%=      5-min Rain = 0
KPD1 191008Z 19014G21KT 26/15 A2994 RMK A01 T02640151  RH  050%=      5-min Rain = 0
KPD1 191009Z 18018KT 27/15 A2994 RMK A01 T02650151  RH  050%=      5-min Rain = 0
KPD1 191010Z 18016G23KT 26/15 A2994 RMK A01 T02640150  RH  050%=      5-min Rain = 0
KPD1 191011Z 18019G24KT 26/15 A2994 RMK A01 T02640150  RH  050%=      5-min Rain = 0
KPD1 191012Z 18014G21KT 26/15 A2994 RMK A01 T02640150  RH  050%=      5-min Rain = 0
KPD1 191013Z 18015G20KT 26/15 A2994 RMK A01 T02640150  RH  050%=      5-min Rain = 0
KPD1 191014Z 18016KT 26/15 A2994 RMK A01 T02640150  RH  050%=      5-min Rain = 0
KPD1 191015Z 18014KT 26/15 A2994 RMK A01 T02640150  RH  050%=      5-min Rain = 0
KPD1 191016Z 17019KT 26/15 A2993 RMK A01 T02630150  RH  050%=      5-min Rain = 0
KPD1 191017Z 18015KT 26/15 A2994 RMK A01 T02630150  RH  050%=      5-min Rain = 0
KPD1 191018Z 19018G23KT 26/15 A2993 RMK A01 T02640151  RH  050%=      5-min Rain = 0
KPD1 191019Z 18016KT 26/15 A2994 RMK A01 T02630150  RH  050%=      5-min Rain = 0
KPD1 191020Z 18013G19KT 26/15 A2993 RMK A01 T02630149  RH  050%=      5-min Rain = 0
KPD1 191021Z 18016G21KT 26/15 A2994 RMK A01 T02630150  RH  050%=      5-min Rain = 0
KPD1 191022Z 18015G21KT 26/15 A2994 RMK A01 T02630150  RH  050%=      5-min Rain = 0
KPD1 191023Z 19015G21KT 26/15 A2994 RMK A01 T02620149  RH  050%=      5-min Rain = 0
KPD1 191024Z 17013G19KT 26/15 A2994 RMK A01 T02620150  RH  050%=      5-min Rain = 0
KPD1 191025Z 19016KT 26/15 A2994 RMK A01 T02620150  RH  050%=      5-min Rain = 0
KPD1 191026Z 18013G18KT 26/15 A2994 RMK A01 T02620149  RH  050%=      5-min Rain = 0
KPD1 191027Z 18013G19KT 26/15 A2994 RMK A01 T02620149  RH  050%=      5-min Rain = 0
KPD1 191028Z 18016G21KT 26/15 A2994 RMK A01 T02620149  RH  050%=      5-min Rain = 0
KPD1 191029Z 18015G20KT 26/15 A2994 RMK A01 T02610148  RH  050%=      5-min Rain = 0
KPD1 191030Z 19016G23KT 26/15 A2994 RMK A01 T02610149  RH  050%=      5-min Rain = 0
KPD1 191031Z 19018KT 26/15 A2994 RMK A01 T02610148  RH  050%=      5-min Rain = 0
KPD1 191032Z 19014G22KT 26/15 A2994 RMK A01 T02610148  RH  050%=      5-min Rain = 0
KPD1 191033Z 18019G25KT 26/15 A2994 RMK A01 T02620148  RH  050%=      5-min Rain = 0
KPD1 191034Z 18018G24KT 26/15 A2994 RMK A01 T02620148  RH  049%=      5-min Rain = 0
KPD1 191035Z 19014G19KT 26/15 A2994 RMK A01 T02620147  RH  049%=      5-min Rain = 0
KPD1 191036Z 18017G24KT 26/15 A2994 RMK A01 T02620147  RH  049%=      5-min Rain = 0
KPD1 191037Z 18012G18KT 26/15 A2994 RMK A01 T02610147  RH  049%=      5-min Rain = 0
KPD1 191038Z 19013G18KT 26/15 A2994 RMK A01 T02620148  RH  050%=      5-min Rain = 0
KPD1 191039Z 19010G15KT 26/15 A2994 RMK A01 T02610147  RH  050%=      5-min Rain = 0
KPD1 191040Z 19014KT 26/15 A2994 RMK A01 T02600147  RH  050%=      5-min Rain = 0
KPD1 191041Z 19016G22KT 26/15 A2994 RMK A01 T02610148  RH  050%=      5-min Rain = 0
KPD1 191042Z 18013KT 26/15 A2994 RMK A01 T02600147  RH  050%=      5-min Rain = 0
KPD1 191043Z 20014KT 26/15 A2994 RMK A01 T02610147  RH  050%=      5-min Rain = 0
KPD1 191044Z 18014G23KT 26/15 A2994 RMK A01 T02610148  RH  050%=      5-min Rain = 0
KPD1 191045Z 19015G21KT 26/15 A2994 RMK A01 T02600146  RH  050%=      5-min Rain = 0
KPD1 191046Z 19012KT 26/15 A2994 RMK A01 T02600147  RH  050%=      5-min Rain = 0
KPD1 191047Z 20012G18KT 26/15 A2994 RMK A01 T02600147  RH  050%=      5-min Rain = 0
KPD1 191048Z 19015G21KT 26/15 A2994 RMK A01 T02590146  RH  050%=      5-min Rain = 0
KPD1 191049Z 19014G19KT 26/15 A2994 RMK A01 T02590146  RH  050%=      5-min Rain = 0
KPD1 191050Z 18010G15KT 26/15 A2994 RMK A01 T02600146  RH  050%=      5-min Rain = 0
KPD1 191051Z 19016G26KT 26/15 A2994 RMK A01 T02600147  RH  050%=      5-min Rain = 0
KPD1 191052Z 19015G21KT 26/15 A2994 RMK A01 T02590145  RH  049%=      5-min Rain = 0
KPD1 191053Z 19009KT 26/15 A2994 RMK A01 T02600146  RH  049%=      5-min Rain = 0
KPD1 191054Z 18017KT 26/15 A2994 RMK A01 T02590145  RH  049%=      5-min Rain = 0
KPD1 191055Z 19014G21KT 26/15 A2994 RMK A01 T02590145  RH  049%=      5-min Rain = 0
KPD1 191056Z 20014KT 26/15 A2994 RMK A01 T02590145  RH  049%=      5-min Rain = 0
KPD1 191057Z 18011G18KT 26/15 A2994 RMK A01 T02590145  RH  049%=      5-min Rain = 0
KPD1 191058Z 18013G18KT 26/15 A2994 RMK A01 T02590145  RH  049%=      5-min Rain = 0
KPD1 191059Z 19013G19KT 26/15 A2994 RMK A01 T02590145  RH  049%=      5-min Rain = 0
KPD1 191100Z 20014G19KT 26/15 A2994 RMK A01 T02600146  RH  049%=      5-min Rain = 0
KPD1 191101Z 18011KT 26/15 A2994 RMK A01 T02590146  RH  049%=      5-min Rain = 0
KPD1 191102Z 18015KT 26/15 A2994 RMK A01 T02590145  RH  049%=      5-min Rain = 0
KPD1 191103Z 20013KT 26/15 A2994 RMK A01 T02580145  RH  049%=      5-min Rain = 0
KPD1 191104Z 19014KT 26/15 A2994 RMK A01 T02580145  RH  049%=      5-min Rain = 0
KPD1 191105Z 20013G20KT 26/15 A2994 RMK A01 T02590145  RH  049%=      5-min Rain = 0
KPD1 191106Z 19012KT 26/14 A2994 RMK A01 T02580144  RH  049%=      5-min Rain = 0
KPD1 191107Z 18014KT 26/14 A2994 RMK A01 T02580144  RH  049%=      5-min Rain = 0
KPD1 191108Z 19012KT 26/14 A2994 RMK A01 T02570144  RH  050%=      5-min Rain = 0
KPD1 191109Z 19013G18KT 26/15 A2994 RMK A01 T02580145  RH  050%=      5-min Rain = 0
KPD1 191110Z 18013G19KT 26/14 A2994 RMK A01 T02580144  RH  050%=      5-min Rain = 0
KPD1 191111Z 19017KT 26/14 A2994 RMK A01 T02570144  RH  050%=      5-min Rain = 0
KPD1 191112Z 19014KT 26/14 A2994 RMK A01 T02580144  RH  050%=      5-min Rain = 0
KPD1 191113Z 18011G18KT 26/14 A2994 RMK A01 T02580144  RH  050%=      5-min Rain = 0
KPD1 191114Z 20011KT 26/14 A2994 RMK A01 T02570144  RH  050%=      5-min Rain = 0
KPD1 191115Z 20017G23KT 26/14 A2994 RMK A01 T02570144  RH  050%=      5-min Rain = 0
KPD1 191116Z 18015G22KT 26/14 A2994 RMK A01 T02570144  RH  050%=      5-min Rain = 0
KPD1 191117Z 19016G22KT 26/14 A2994 RMK A01 T02570144  RH  049%=      5-min Rain = 0
KPD1 191118Z 18013G19KT 26/14 A2994 RMK A01 T02570144  RH  049%=      5-min Rain = 0
KPD1 191119Z 18012KT 26/14 A2994 RMK A01 T02570144  RH  049%=      5-min Rain = 0
KPD1 191120Z 19014KT 26/14 A2994 RMK A01 T02570144  RH  050%=      5-min Rain = 0
KPD1 191121Z 19012G18KT 26/14 A2994 RMK A01 T02560143  RH  050%=      5-min Rain = 0
KPD1 191122Z 18014KT 26/14 A2994 RMK A01 T02560144  RH  050%=      5-min Rain = 0
KPD1 191123Z 19016G23KT 26/14 A2994 RMK A01 T02560143  RH  050%=      5-min Rain = 0
KPD1 191124Z 19012G18KT 26/14 A2994 RMK A01 T02560143  RH  050%=      5-min Rain = 0
KPD1 191125Z 19012G17KT 26/14 A2994 RMK A01 T02570144  RH  050%=      5-min Rain = 0
KPD1 191126Z 18015G21KT 26/14 A2994 RMK A01 T02560143  RH  050%=      5-min Rain = 0
KPD1 191127Z 19013KT 26/14 A2994 RMK A01 T02560143  RH  050%=      5-min Rain = 0
KPD1 191128Z 18014KT 26/14 A2994 RMK A01 T02560143  RH  050%=      5-min Rain = 0
KPD1 191129Z 18013KT 26/14 A2994 RMK A01 T02560143  RH  050%=      5-min Rain = 0
KPD1 191130Z 19018G29KT 26/14 A2994 RMK A01 T02560143  RH  050%=      5-min Rain = 0
KPD1 191131Z 19014G19KT 26/14 A2994 RMK A01 T02560143  RH  049%=      5-min Rain = 0
KPD1 191132Z 18017G23KT 26/14 A2994 RMK A01 T02560142  RH  049%=      5-min Rain = 0
KPD1 191133Z 18013KT 26/14 A2995 RMK A01 T02560142  RH  049%=      5-min Rain = 0
KPD1 191134Z 19015G21KT 26/14 A2995 RMK A01 T02560143  RH  049%=      5-min Rain = 0
KPD1 191135Z 19016G21KT 26/14 A2995 RMK A01 T02560143  RH  050%=      5-min Rain = 0
KPD1 191136Z 20016G21KT 26/14 A2995 RMK A01 T02560142  RH  049%=      5-min Rain = 0
KPD1 191137Z 19016KT 26/14 A2995 RMK A01 T02560143  RH  050%=      5-min Rain = 0
KPD1 191138Z 18016KT 26/14 A2995 RMK A01 T02560142  RH  049%=      5-min Rain = 0
KPD1 191139Z 18017KT 26/14 A2995 RMK A01 T02560143  RH  049%=      5-min Rain = 0
KPD1 191140Z 19017G26KT 26/14 A2995 RMK A01 T02550142  RH  049%=      5-min Rain = 0
KPD1 191141Z 19016G22KT 26/14 A2995 RMK A01 T02560142  RH  049%=      5-min Rain = 0
KPD1 191142Z 19011KT 26/14 A2995 RMK A01 T02560142  RH  049%=      5-min Rain = 0
KPD1 191143Z 19011KT 26/14 A2995 RMK A01 T02550142  RH  049%=      5-min Rain = 0
KPD1 191144Z 18013G20KT 25/14 A2995 RMK A01 T02540142  RH  050%=      5-min Rain = 0
KPD1 191145Z 19015KT 25/14 A2995 RMK A01 T02540142  RH  050%=      5-min Rain = 0
KPD1 191146Z 18017KT 25/14 A2995 RMK A01 T02540142  RH  050%=      5-min Rain = 0
KPD1 191147Z 20017KT 25/14 A2995 RMK A01 T02540141  RH  050%=      5-min Rain = 0
KPD1 191148Z 18016KT 26/14 A2995 RMK A01 T02550142  RH  050%=      5-min Rain = 0
KPD1 191149Z 19013KT 26/14 A2995 RMK A01 T02550142  RH  050%=      5-min Rain = 0
KPD1 191150Z 19012G18KT 25/14 A2995 RMK A01 T02540141  RH  050%=      5-min Rain = 0
KPD1 191151Z 18015KT 25/14 A2995 RMK A01 T02540142  RH  050%=      5-min Rain = 0
KPD1 191152Z 19012G18KT 25/14 A2995 RMK A01 T02530141  RH  050%=      5-min Rain = 0
KPD1 191153Z 19015KT 25/14 A2995 RMK A01 T02540142  RH  050%=      5-min Rain = 0
KPD1 191154Z 19015G20KT 25/14 A2995 RMK A01 T02540142  RH  050%=      5-min Rain = 0
KPD1 191155Z 19014G20KT 25/14 A2995 RMK A01 T02540142  RH  050%=      5-min Rain = 0
KPD1 191156Z 19013G18KT 25/14 A2995 RMK A01 T02530141  RH  050%=      5-min Rain = 0
KPD1 191157Z 20015G21KT 25/14 A2995 RMK A01 T02530141  RH  050%=      5-min Rain = 0
KPD1 191158Z 17014KT 25/14 A2995 RMK A01 T02540142  RH  050%=      5-min Rain = 0
KPD1 191159Z 19012KT 25/14 A2995 RMK A01 T02530141  RH  050%=      5-min Rain = 0
KPD1 191200Z 19016G22KT 25/14 A2995 RMK A01 T02530141  RH  050%=      5-min Rain = 0
KPD1 191201Z 19019KT 25/14 A2995 RMK A01 T02540142  RH  050%=      5-min Rain = 0
KPD1 191202Z 18012G18KT 25/14 A2995 RMK A01 T02540142  RH  050%=      5-min Rain = 0
KPD1 191203Z 19012G19KT 25/14 A2995 RMK A01 T02540141  RH  050%=      5-min Rain = 0
KPD1 191204Z 18013KT 25/14 A2995 RMK A01 T02530141  RH  050%=      5-min Rain = 0
KPD1 191205Z 19014G19KT 25/14 A2995 RMK A01 T02530141  RH  050%=      5-min Rain = 0
KPD1 191206Z 19020KT 25/14 A2995 RMK A01 T02520141  RH  050%=      5-min Rain = 0
KPD1 191207Z 19017KT 25/14 A2995 RMK A01 T02530141  RH  050%=      5-min Rain = 0
KPD1 191208Z 19014G21KT 25/14 A2995 RMK A01 T02540141  RH  050%=      5-min Rain = 0
KPD1 191209Z 19020G28KT 25/14 A2995 RMK A01 T02540141  RH  050%=      5-min Rain = 0
KPD1 191210Z 19018G24KT 25/14 A2995 RMK A01 T02540141  RH  050%=      5-min Rain = 0
KPD1 191211Z 18019G28KT 26/14 A2995 RMK A01 T02550141  RH  049%=      5-min Rain = 0
KPD1 191212Z 19013G18KT 26/14 A2995 RMK A01 T02550141  RH  049%=      5-min Rain = 0
KPD1 191213Z 18016G23KT 26/14 A2995 RMK A01 T02550142  RH  049%=      5-min Rain = 0
KPD1 191214Z 19016G22KT 25/14 A2995 RMK A01 T02540141  RH  050%=      5-min Rain = 0
KPD1 191215Z 19019G24KT 25/14 A2995 RMK A01 T02540141  RH  050%=      5-min Rain = 0
KPD1 191216Z 19015G21KT 25/14 A2995 RMK A01 T02540141  RH  049%=      5-min Rain = 0
KPD1 191217Z 19018G23KT 25/14 A2995 RMK A01 T02540141  RH  049%=      5-min Rain = 0
KPD1 191218Z 19016G22KT 26/14 A2994 RMK A01 T02550142  RH  049%=      5-min Rain = 0
KPD1 191219Z 19010KT 25/14 A2995 RMK A01 T02540141  RH  050%=      5-min Rain = 0
KPD1 191220Z 19011KT 25/14 A2995 RMK A01 T02540142  RH  050%=      5-min Rain = 0
KPD1 191221Z 19013G20KT 25/14 A2995 RMK A01 T02530141  RH  050%=      5-min Rain = 0
KPD1 191222Z 18014KT 25/14 A2995 RMK A01 T02530142  RH  050%=      5-min Rain = 0
KPD1 191223Z 18012G18KT 25/14 A2995 RMK A01 T02530142  RH  050%=      5-min Rain = 0
KPD1 191224Z 19013G20KT 25/14 A2995 RMK A01 T02520141  RH  050%=      5-min Rain = 0
KPD1 191225Z 20012G17KT 25/14 A2995 RMK A01 T02520142  RH  050%=      5-min Rain = 0
KPD1 191226Z 19011G17KT 25/14 A2995 RMK A01 T02520142  RH  050%=      5-min Rain = 0
KPD1 191227Z 19014G22KT 25/14 A2995 RMK A01 T02520141  RH  050%=      5-min Rain = 0
KPD1 191228Z 18010G17KT 25/14 A2995 RMK A01 T02510141  RH  050%=      5-min Rain = 0
KPD1 191229Z 19017G23KT 25/14 A2995 RMK A01 T02520141  RH  050%=      5-min Rain = 0
KPD1 191230Z 19014G19KT 25/14 A2995 RMK A01 T02520141  RH  050%=      5-min Rain = 0
KPD1 191231Z 19014KT 25/14 A2995 RMK A01 T02530141  RH  050%=      5-min Rain = 0
KPD1 191232Z 18013G19KT 25/14 A2995 RMK A01 T02530141  RH  050%=      5-min Rain = 0
KPD1 191233Z 19016KT 25/14 A2995 RMK A01 T02530141  RH  050%=      5-min Rain = 0
KPD1 191234Z 19017G24KT 25/14 A2995 RMK A01 T02530141  RH  050%=      5-min Rain = 0
KPD1 191235Z 20015G25KT 25/14 A2995 RMK A01 T02540141  RH  050%=      5-min Rain = 0
KPD1 191236Z 18014G21KT 25/14 A2995 RMK A01 T02540141  RH  050%=      5-min Rain = 0
KPD1 191237Z 19012KT 25/14 A2995 RMK A01 T02540142  RH  050%=      5-min Rain = 0
KPD1 191238Z 18015G25KT 25/14 A2995 RMK A01 T02540142  RH  050%=      5-min Rain = 0
KPD1 191239Z 18016G24KT 25/14 A2995 RMK A01 T02540141  RH  049%=      5-min Rain = 0
KPD1 191240Z 18012G17KT 26/14 A2995 RMK A01 T02550142  RH  049%=      5-min Rain = 0
KPD1 191241Z 19017G23KT 26/14 A2995 RMK A01 T02550142  RH  049%=      5-min Rain = 0
KPD1 191242Z 19019G26KT 26/14 A2995 RMK A01 T02550142  RH  049%=      5-min Rain = 0
KPD1 191243Z 19016G23KT 26/14 A2995 RMK A01 T02550141  RH  049%=      5-min Rain = 0
KPD1 191244Z 19013G18KT 26/14 A2995 RMK A01 T02550141  RH  049%=      5-min Rain = 0
KPD1 191245Z 19014KT 26/14 A2995 RMK A01 T02550141  RH  049%=      5-min Rain = 0
KPD1 191246Z 19014KT 26/14 A2995 RMK A01 T02550141  RH  049%=      5-min Rain = 0
KPD1 191247Z 19012KT 26/14 A2995 RMK A01 T02550141  RH  049%=      5-min Rain = 0
KPD1 191248Z 19016G24KT 26/14 A2995 RMK A01 T02560141  RH  049%=      5-min Rain = 0
KPD1 191249Z 19016G23KT 26/14 A2995 RMK A01 T02560141  RH  049%=      5-min Rain = 0
KPD1 191250Z 19015G21KT 26/14 A2995 RMK A01 T02570141  RH  049%=      5-min Rain = 0
KPD1 191251Z 20017G24KT 26/14 A2995 RMK A01 T02570141  RH  049%=      5-min Rain = 0
KPD1 191252Z 19016G26KT 26/14 A2995 RMK A01 T02580142  RH  049%=      5-min Rain = 0
KPD1 191253Z 19012G17KT 26/14 A2995 RMK A01 T02570141  RH  049%=      5-min Rain = 0
KPD1 191254Z 19013G19KT 26/14 A2995 RMK A01 T02580142  RH  049%=      5-min Rain = 0
KPD1 191255Z 20013KT 26/14 A2995 RMK A01 T02580142  RH  049%=      5-min Rain = 0
KPD1 191256Z 19014G19KT 26/14 A2995 RMK A01 T02580142  RH  049%=      5-min Rain = 0
KPD1 191257Z 18017KT 26/14 A2995 RMK A01 T02580142  RH  049%=      5-min Rain = 0
KPD1 191258Z 18011G19KT 26/14 A2995 RMK A01 T02580141  RH  048%=      5-min Rain = 0
KPD1 191259Z 18014G20KT 26/14 A2995 RMK A01 T02580142  RH  049%=      5-min Rain = 0
KPD1 191300Z 19018G24KT 26/14 A2995 RMK A01 T02590142  RH  048%=      5-min Rain = 0
KPD1 191301Z 19014KT 26/14 A2995 RMK A01 T02590142  RH  048%=      5-min Rain = 0
KPD1 191302Z 19011G20KT 26/14 A2995 RMK A01 T02590142  RH  048%=      5-min Rain = 0
KPD1 191303Z 18014G21KT 26/14 A2995 RMK A01 T02590142  RH  048%=      5-min Rain = 0
KPD1 191304Z 19014G20KT 26/14 A2995 RMK A01 T02600142  RH  048%=      5-min Rain = 0
KPD1 191305Z 19012KT 26/14 A2995 RMK A01 T02600141  RH  048%=      5-min Rain = 0
KPD1 191306Z 19015KT 26/14 A2995 RMK A01 T02600142  RH  048%=      5-min Rain = 0
KPD1 191307Z 19014G19KT 26/14 A2995 RMK A01 T02600141  RH  048%=      5-min Rain = 0
KPD1 191308Z 19016KT 26/14 A2995 RMK A01 T02600142  RH  048%=      5-min Rain = 0
KPD1 191309Z 20019G27KT 26/14 A2995 RMK A01 T02610142  RH  048%=      5-min Rain = 0
KPD1 191310Z 19016G23KT 26/14 A2995 RMK A01 T02610141  RH  048%=      5-min Rain = 0
KPD1 191311Z 18015G21KT 26/14 A2995 RMK A01 T02610142  RH  048%=      5-min Rain = 0
KPD1 191312Z 18013KT 26/14 A2995 RMK A01 T02610142  RH  048%=      5-min Rain = 0
KPD1 191313Z 19013KT 26/14 A2995 RMK A01 T02620143  RH  048%=      5-min Rain = 0
KPD1 191314Z 18013KT 26/14 A2995 RMK A01 T02620142  RH  048%=      5-min Rain = 0
KPD1 191315Z 18012G19KT 26/14 A2995 RMK A01 T02620142  RH  048%=      5-min Rain = 0
KPD1 191316Z 18011KT 26/14 A2995 RMK A01 T02630143  RH  048%=      5-min Rain = 0
KPD1 191317Z 19013G18KT 26/14 A2995 RMK A01 T02630143  RH  048%=      5-min Rain = 0
KPD1 191318Z 19018G25KT 26/14 A2995 RMK A01 T02640142  RH  047%=      5-min Rain = 0
KPD1 191319Z 20012G18KT 26/14 A2995 RMK A01 T02640142  RH  047%=      5-min Rain = 0
KPD1 191320Z 19012G17KT 26/14 A2995 RMK A01 T02640143  RH  047%=      5-min Rain = 0
KPD1 191321Z 18013G19KT 27/14 A2995 RMK A01 T02650144  RH  047%=      5-min Rain = 0
KPD1 191322Z 18014KT 27/14 A2995 RMK A01 T02650143  RH  047%=      5-min Rain = 0
KPD1 191323Z 19012G17KT 27/14 A2995 RMK A01 T02650143  RH  047%=      5-min Rain = 0
KPD1 191324Z 18012G20KT 27/14 A2995 RMK A01 T02660144  RH  047%=      5-min Rain = 0
KPD1 191325Z 19015G20KT 27/14 A2995 RMK A01 T02670143  RH  047%=      5-min Rain = 0
KPD1 191326Z 19013G19KT 27/14 A2995 RMK A01 T02670143  RH  047%=      5-min Rain = 0
KPD1 191327Z 20014G19KT 27/14 A2995 RMK A01 T02660142  RH  046%=      5-min Rain = 0
KPD1 191328Z 20014KT 27/14 A2995 RMK A01 T02670143  RH  046%=      5-min Rain = 0
KPD1 191329Z 18012G19KT 27/14 A2995 RMK A01 T02670144  RH  047%=      5-min Rain = 0
KPD1 191330Z 20013G20KT 27/14 A2995 RMK A01 T02680144  RH  046%=      5-min Rain = 0
KPD1 191331Z 20015KT 27/14 A2995 RMK A01 T02690144  RH  046%=      5-min Rain = 0
KPD1 191332Z 19011G16KT 27/14 A2995 RMK A01 T02690144  RH  046%=      5-min Rain = 0
KPD1 191333Z 19011KT 27/14 A2995 RMK A01 T02690144  RH  046%=      5-min Rain = 0
KPD1 191334Z 19014G20KT 27/15 A2995 RMK A01 T02700145  RH  046%=      5-min Rain = 0
KPD1 191335Z 18011G17KT 27/14 A2995 RMK A01 T02700144  RH  046%=      5-min Rain = 0
KPD1 191336Z 18008KT 27/14 A2995 RMK A01 T02700144  RH  046%=      5-min Rain = 0
KPD1 191337Z 19011G16KT 27/15 A2995 RMK A01 T02720146  RH  046%=      5-min Rain = 0
KPD1 191338Z 19012G20KT 27/15 A2995 RMK A01 T02720145  RH  046%=      5-min Rain = 0
KPD1 191339Z 18016G21KT 27/14 A2995 RMK A01 T02710144  RH  046%=      5-min Rain = 0
KPD1 191340Z 18010G16KT 27/15 A2996 RMK A01 T02730145  RH  046%=      5-min Rain = 0
KPD1 191341Z 19015G20KT 27/15 A2996 RMK A01 T02720145  RH  046%=      5-min Rain = 0
KPD1 191342Z 18018KT 27/14 A2996 RMK A01 T02720144  RH  045%=      5-min Rain = 0
KPD1 191343Z 19012KT 27/14 A2996 RMK A01 T02720144  RH  046%=      5-min Rain = 0
KPD1 191344Z 19010KT 27/15 A2996 RMK A01 T02730146  RH  046%=      5-min Rain = 0
KPD1 191345Z 18011KT 27/15 A2996 RMK A01 T02730145  RH  046%=      5-min Rain = 0
KPD1 191346Z 17013G19KT 27/15 A2996 RMK A01 T02740145  RH  045%=      5-min Rain = 0
KPD1 191347Z 18015KT 27/15 A2996 RMK A01 T02740145  RH  045%=      5-min Rain = 0
KPD1 191348Z 19014G20KT 27/15 A2996 RMK A01 T02740145  RH  045%=      5-min Rain = 0
KPD1 191349Z 17010KT 27/15 A2996 RMK A01 T02740145  RH  045%=      5-min Rain = 0
KPD1 191350Z 17009G15KT 28/15 A2996 RMK A01 T02750146  RH  045%=      5-min Rain = 0
KPD1 191351Z 18008KT 28/15 A2996 RMK A01 T02750146  RH  045%=      5-min Rain = 0
KPD1 191352Z 17012KT 28/15 A2996 RMK A01 T02760147  RH  045%=      5-min Rain = 0
KPD1 191353Z 18011KT 28/15 A2996 RMK A01 T02770146  RH  045%=      5-min Rain = 0
KPD1 191354Z 19009G18KT 28/15 A2996 RMK A01 T02770147  RH  045%=      5-min Rain = 0
KPD1 191355Z 17014KT 28/15 A2996 RMK A01 T02770146  RH  045%=      5-min Rain = 0
KPD1 191356Z 17017KT 28/15 A2996 RMK A01 T02780147  RH  045%=      5-min Rain = 0
KPD1 191357Z 17014KT 28/15 A2996 RMK A01 T02780146  RH  044%=      5-min Rain = 0
KPD1 191358Z 17012KT 28/15 A2997 RMK A01 T02780146  RH  045%=      5-min Rain = 0
KPD1 191359Z 17014G22KT 28/15 A2997 RMK A01 T02780147  RH  045%=      5-min Rain = 0
KPD1 191400Z 18014G22KT 28/15 A2997 RMK A01 T02780146  RH  044%=      5-min Rain = 0
KPD1 191401Z 18008KT 28/15 A2997 RMK A01 T02780147  RH  045%=      5-min Rain = 0
KPD1 191402Z 17010G17KT 28/15 A2997 RMK A01 T02790148  RH  045%=      5-min Rain = 0
KPD1 191403Z 16012KT 28/15 A2997 RMK A01 T02800147  RH  044%=      5-min Rain = 0
KPD1 191404Z 17013KT 28/15 A2997 RMK A01 T02800148  RH  044%=      5-min Rain = 0
KPD1 191405Z 17011KT 28/15 A2997 RMK A01 T02800147  RH  044%=      5-min Rain = 0
KPD1 191406Z 17007KT 28/15 A2997 RMK A01 T02810148  RH  044%=      5-min Rain = 0
KPD1 191407Z 17009G14KT 28/15 A2997 RMK A01 T02820149  RH  044%=      5-min Rain = 0
KPD1 191408Z 19013KT 28/15 A2997 RMK A01 T02830148  RH  044%=      5-min Rain = 0
KPD1 191409Z 20014G20KT 28/15 A2997 RMK A01 T02820147  RH  044%=      5-min Rain = 0
KPD1 191410Z 19010KT 28/15 A2997 RMK A01 T02830147  RH  044%=      5-min Rain = 0
KPD1 191411Z 18006KT 28/15 A2997 RMK A01 T02830149  RH  044%=      5-min Rain = 0
KPD1 191412Z 16009G14KT 28/15 A2997 RMK A01 T02840151  RH  044%=      5-min Rain = 0
KPD1 191413Z 18017G25KT 29/15 A2997 RMK A01 T02850148  RH  043%=      5-min Rain = 0
KPD1 191414Z 18013G21KT 29/15 A2997 RMK A01 T02850148  RH  043%=      5-min Rain = 0
KPD1 191415Z 19012G18KT 28/15 A2997 RMK A01 T02840147  RH  043%=      5-min Rain = 0
KPD1 191416Z 18011KT 28/15 A2997 RMK A01 T02840149  RH  044%=      5-min Rain = 0
KPD1 191417Z 19015KT 29/15 A2997 RMK A01 T02860150  RH  044%=      5-min Rain = 0
KPD1 191418Z 18010KT 29/15 A2997 RMK A01 T02860148  RH  043%=      5-min Rain = 0
KPD1 191419Z 17007KT 29/15 A2997 RMK A01 T02860149  RH  043%=      5-min Rain = 0
KPD1 191420Z 16007KT 29/15 A2997 RMK A01 T02870151  RH  044%=      5-min Rain = 0
KPD1 191421Z 17008KT 29/15 A2997 RMK A01 T02890151  RH  043%=      5-min Rain = 0
KPD1 191422Z 18010KT 29/15 A2997 RMK A01 T02890151  RH  043%=      5-min Rain = 0
KPD1 191423Z 18012KT 29/15 A2997 RMK A01 T02900150  RH  043%=      5-min Rain = 0
KPD1 191424Z 16008G16KT 29/15 A2997 RMK A01 T02890150  RH  043%=      5-min Rain = 0
KPD1 191425Z 16016KT 29/15 A2997 RMK A01 T02900150  RH  043%=      5-min Rain = 0
KPD1 191426Z 15013G19KT 29/15 A2997 RMK A01 T02890149  RH  042%=      5-min Rain = 0
KPD1 191427Z 16012G18KT 29/15 A2997 RMK A01 T02880149  RH  043%=      5-min Rain = 0
KPD1 191428Z 17014KT 29/15 A2997 RMK A01 T02880150  RH  043%=      5-min Rain = 0
KPD1 191429Z 18013KT 29/15 A2997 RMK A01 T02880150  RH  043%=      5-min Rain = 0
KPD1 191430Z 18011KT 29/15 A2997 RMK A01 T02880151  RH  043%=      5-min Rain = 0
KPD1 191431Z 17009G15KT 29/15 A2997 RMK A01 T02890152  RH  043%=      5-min Rain = 0
KPD1 191432Z 16011G18KT 29/15 A2997 RMK A01 T02910151  RH  043%=      5-min Rain = 0
KPD1 191433Z 16011KT 29/15 A2997 RMK A01 T02910150  RH  042%=      5-min Rain = 0
KPD1 191434Z 16009KT 29/15 A2997 RMK A01 T02910150  RH  042%=      5-min Rain = 0
KPD1 191435Z 17010KT 29/15 A2997 RMK A01 T02910151  RH  043%=      5-min Rain = 0
KPD1 191436Z 17011KT 29/15 A2997 RMK A01 T02910151  RH  043%=      5-min Rain = 0
KPD1 191437Z 18009KT 29/15 A2997 RMK A01 T02920152  RH  043%=      5-min Rain = 0
KPD1 191438Z 20007G12KT 29/15 A2997 RMK A01 T02920152  RH  042%=      5-min Rain = 0
KPD1 191439Z 15007KT 29/15 A2997 RMK A01 T02930153  RH  043%=      5-min Rain = 0
KPD1 191440Z 16007G12KT 29/15 A2997 RMK A01 T02940151  RH  042%=      5-min Rain = 0
KPD1 191441Z 16011G16KT 29/15 A2997 RMK A01 T02940154  RH  042%=      5-min Rain = 0
KPD1 191442Z 17013KT 30/15 A2997 RMK A01 T02960152  RH  042%=      5-min Rain = 0
KPD1 191443Z 17009G14KT 30/15 A2998 RMK A01 T02960152  RH  042%=      5-min Rain = 0
KPD1 191444Z 16011G18KT 30/15 A2997 RMK A01 T02960153  RH  042%=      5-min Rain = 0
KPD1 191445Z 16016KT 30/15 A2997 RMK A01 T02970153  RH  042%=      5-min Rain = 0
KPD1 191446Z 17011KT 30/15 A2997 RMK A01 T02960152  RH  042%=      5-min Rain = 0
KPD1 191447Z 18012G17KT 30/15 A2997 RMK A01 T02960153  RH  042%=      5-min Rain = 0
KPD1 191448Z 18012G17KT 30/15 A2998 RMK A01 T02950152  RH  042%=      5-min Rain = 0
KPD1 191449Z 19014KT 30/15 A2997 RMK A01 T02960153  RH  042%=      5-min Rain = 0
KPD1 191450Z 18014KT 30/15 A2998 RMK A01 T02970152  RH  041%=      5-min Rain = 0
KPD1 191451Z 18008KT 30/15 A2998 RMK A01 T02960152  RH  042%=      5-min Rain = 0
KPD1 191452Z 19012KT 30/15 A2998 RMK A01 T02970153  RH  042%=      5-min Rain = 0
KPD1 191453Z 19008KT 30/15 A2998 RMK A01 T02970153  RH  041%=      5-min Rain = 0
KPD1 191454Z 17009KT 30/16 A2998 RMK A01 T02970155  RH  042%=      5-min Rain = 0
KPD1 191455Z 18008KT 30/16 A2998 RMK A01 T03000155  RH  041%=      5-min Rain = 0
KPD1 191456Z 18008KT 30/15 A2998 RMK A01 T03000154  RH  041%=      5-min Rain = 0
KPD1 191457Z 16007KT 30/16 A2997 RMK A01 T03010156  RH  041%=      5-min Rain = 0
KPD1 191458Z 16008KT 30/16 A2997 RMK A01 T03020155  RH  041%=      5-min Rain = 0
KPD1 191459Z 18011KT 30/16 A2997 RMK A01 T03040156  RH  041%=      5-min Rain = 0
KPD1 191500Z 17006KT 31/16 A2997 RMK A01 T03050156  RH  041%=      5-min Rain = 0
KPD1 191501Z 17008KT 31/16 A2997 RMK A01 T03050156  RH  041%=      5-min Rain = 0
KPD1 191502Z 18010G16KT 31/16 A2997 RMK A01 T03060156  RH  040%=      5-min Rain = 0
KPD1 191503Z 19014KT 31/16 A2997 RMK A01 T03060155  RH  040%=      5-min Rain = 0
KPD1 191504Z 19010KT 31/16 A2997 RMK A01 T03050155  RH  040%=      5-min Rain = 0
KPD1 191505Z 18011KT 31/16 A2997 RMK A01 T03050156  RH  041%=      5-min Rain = 0
KPD1 191506Z 19013KT 31/16 A2997 RMK A01 T03060155  RH  040%=      5-min Rain = 0
KPD1 191507Z 18009KT 31/16 A2997 RMK A01 T03060156  RH  040%=      5-min Rain = 0
KPD1 191508Z 17008KT 31/15 A2997 RMK A01 T03060154  RH  040%=      5-min Rain = 0
KPD1 191509Z 19009KT 31/16 A2997 RMK A01 T03060157  RH  040%=      5-min Rain = 0
KPD1 191510Z 20007KT 31/16 A2997 RMK A01 T03060156  RH  040%=      5-min Rain = 0
KPD1 191511Z 19011KT 31/16 A2997 RMK A01 T03070157  RH  040%=      5-min Rain = 0
KPD1 191512Z 18011KT 31/16 A2997 RMK A01 T03080157  RH  040%=      5-min Rain = 0
KPD1 191513Z 16009KT 31/16 A2997 RMK A01 T03090156  RH  040%=      5-min Rain = 0
KPD1 191514Z 19009KT 31/16 A2997 RMK A01 T03090157  RH  040%=      5-min Rain = 0
KPD1 191515Z 19009KT 31/16 A2997 RMK A01 T03100156  RH  040%=      5-min Rain = 0
KPD1 191516Z 19013KT 31/16 A2997 RMK A01 T03100157  RH  040%=      5-min Rain = 0
KPD1 191517Z 17013KT 31/16 A2997 RMK A01 T03100157  RH  039%=      5-min Rain = 0
KPD1 191518Z 18014KT 31/16 A2997 RMK A01 T03100155  RH  039%=      5-min Rain = 0
KPD1 191519Z 17010KT 31/16 A2997 RMK A01 T03090155  RH  039%=      5-min Rain = 0
KPD1 191520Z 17008G13KT 31/16 A2997 RMK A01 T03090157  RH  040%=      5-min Rain = 0
KPD1 191521Z 17013KT 31/16 A2997 RMK A01 T03100158  RH  040%=      5-min Rain = 0
KPD1 191522Z 17011KT 31/16 A2997 RMK A01 T03110156  RH  039%=      5-min Rain = 0
KPD1 191523Z 18010KT 31/16 A2997 RMK A01 T03110157  RH  039%=      5-min Rain = 0
KPD1 191524Z 18014KT 31/16 A2997 RMK A01 T03120158  RH  040%=      5-min Rain = 0
KPD1 191525Z 20010KT 31/16 A2997 RMK A01 T03120155  RH  039%=      5-min Rain = 0
KPD1 191526Z 17009KT 31/16 A2997 RMK A01 T03110156  RH  039%=      5-min Rain = 0
KPD1 191527Z 20011KT 31/16 A2997 RMK A01 T03120157  RH  039%=      5-min Rain = 0
KPD1 191528Z 20013KT 31/16 A2997 RMK A01 T03140156  RH  039%=      5-min Rain = 0
KPD1 191529Z 19011KT 32/16 A2997 RMK A01 T03150157  RH  039%=      5-min Rain = 0
KPD1 191530Z 18008KT 32/16 A2996 RMK A01 T03160158  RH  039%=      5-min Rain = 0
KPD1 191531Z 17011KT 32/16 A2997 RMK A01 T03170158  RH  038%=      5-min Rain = 0
KPD1 191532Z 18012KT 32/16 A2997 RMK A01 T03180159  RH  038%=      5-min Rain = 0
KPD1 191533Z 20014KT 32/16 A2997 RMK A01 T03170158  RH  038%=      5-min Rain = 0
KPD1 191534Z 20014KT 32/16 A2997 RMK A01 T03170157  RH  038%=      5-min Rain = 0
KPD1 191535Z 20010KT 32/15 A2996 RMK A01 T03150154  RH  038%=      5-min Rain = 0
KPD1 191536Z 18015KT 31/16 A2997 RMK A01 T03140156  RH  039%=      5-min Rain = 0
KPD1 191537Z 17015KT 31/16 A2997 RMK A01 T03130155  RH  038%=      5-min Rain = 0
KPD1 191538Z 18015KT 31/15 A2997 RMK A01 T03140154  RH  038%=      5-min Rain = 0
KPD1 191539Z 20016KT 31/16 A2997 RMK A01 T03140155  RH  038%=      5-min Rain = 0
KPD1 191540Z 20015G20KT 31/15 A2996 RMK A01 T03140154  RH  038%=      5-min Rain = 0
KPD1 191541Z 20012G17KT 31/16 A2997 RMK A01 T03140156  RH  038%=      5-min Rain = 0
KPD1 191542Z 18015KT 32/16 A2997 RMK A01 T03150156  RH  038%=      5-min Rain = 0
KPD1 191543Z 18010KT 32/16 A2997 RMK A01 T03160156  RH  038%=      5-min Rain = 0
KPD1 191544Z 20010KT 32/16 A2997 RMK A01 T03170157  RH  038%=      5-min Rain = 0
KPD1 191545Z 18008KT 32/16 A2997 RMK A01 T03200159  RH  038%=      5-min Rain = 0
KPD1 191546Z 17012G23KT 32/16 A2997 RMK A01 T03220160  RH  038%=      5-min Rain = 0
KPD1 191547Z 17016KT 32/16 A2997 RMK A01 T03230158  RH  037%=      5-min Rain = 0
KPD1 191548Z 18014KT 32/16 A2997 RMK A01 T03220157  RH  037%=      5-min Rain = 0
KPD1 191549Z 19013KT 32/16 A2997 RMK A01 T03200157  RH  037%=      5-min Rain = 0
KPD1 191550Z 20013KT 32/16 A2997 RMK A01 T03200158  RH  038%=      5-min Rain = 0
KPD1 191551Z 20013G18KT 32/16 A2997 RMK A01 T03200158  RH  038%=      5-min Rain = 0
KPD1 191552Z 18010G15KT 32/16 A2997 RMK A01 T03210158  RH  037%=      5-min Rain = 0
KPD1 191553Z 18013KT 32/16 A2997 RMK A01 T03210158  RH  038%=      5-min Rain = 0
KPD1 191554Z 19010KT 32/16 A2997 RMK A01 T03210157  RH  037%=      5-min Rain = 0
KPD1 191555Z 19011KT 32/16 A2997 RMK A01 T03230160  RH  038%=      5-min Rain = 0
KPD1 191556Z 17010G16KT 33/16 A2997 RMK A01 T03250160  RH  037%=      5-min Rain = 0
KPD1 191557Z 16012KT 33/16 A2997 RMK A01 T03260159  RH  037%=      5-min Rain = 0
KPD1 191558Z 16014KT 33/16 A2997 RMK A01 T03260158  RH  036%=      5-min Rain = 0
KPD1 191559Z 19011KT 33/16 A2997 RMK A01 T03260158  RH  036%=      5-min Rain = 0
KPD1 191600Z 18008G13KT 33/16 A2997 RMK A01 T03250159  RH  037%=      5-min Rain = 0
KPD1 191601Z 18010G16KT 33/16 A2997 RMK A01 T03260160  RH  037%=      5-min Rain = 0
KPD1 191602Z 16009G15KT 33/16 A2997 RMK A01 T03270161  RH  037%=      5-min Rain = 0
KPD1 191603Z 17013KT 33/16 A2997 RMK A01 T03280160  RH  036%=      5-min Rain = 0
KPD1 191604Z 19010KT 33/16 A2997 RMK A01 T03280158  RH  036%=      5-min Rain = 0
KPD1 191605Z 16011KT 33/16 A2997 RMK A01 T03260159  RH  037%=      5-min Rain = 0
KPD1 191606Z 17013KT 33/16 A2997 RMK A01 T03260159  RH  037%=      5-min Rain = 0
KPD1 191607Z 17010KT 33/16 A2997 RMK A01 T03260157  RH  036%=      5-min Rain = 0
KPD1 191608Z 19012KT 33/16 A2997 RMK A01 T03260159  RH  037%=      5-min Rain = 0
KPD1 191609Z 19008KT 33/16 A2997 RMK A01 T03280159  RH  036%=      5-min Rain = 0
KPD1 191610Z 22012G18KT 33/16 A2997 RMK A01 T03290158  RH  036%=      5-min Rain = 0
KPD1 191611Z 19009G16KT 33/16 A2997 RMK A01 T03300161  RH  036%=      5-min Rain = 0
KPD1 191612Z 19012KT 33/16 A2997 RMK A01 T03300159  RH  036%=      5-min Rain = 0
KPD1 191613Z 19009G19KT 33/16 A2997 RMK A01 T03290158  RH  036%=      5-min Rain = 0
KPD1 191614Z 19012G18KT 33/16 A2997 RMK A01 T03290159  RH  036%=      5-min Rain = 0
KPD1 191615Z 16008KT 33/16 A2997 RMK A01 T03300159  RH  036%=      5-min Rain = 0
KPD1 191616Z 17011KT 33/16 A2997 RMK A01 T03330162  RH  036%=      5-min Rain = 0
KPD1 191617Z 17011KT 33/16 A2997 RMK A01 T03340160  RH  035%=      5-min Rain = 0
KPD1 191618Z 17010KT 34/16 A2997 RMK A01 T03350160  RH  035%=      5-min Rain = 0
KPD1 191619Z 17008G14KT 34/16 A2996 RMK A01 T03350162  RH  036%=      5-min Rain = 0
KPD1 191620Z 17013G19KT 34/16 A2996 RMK A01 T03370161  RH  035%=      5-min Rain = 0
KPD1 191621Z 18014KT 34/16 A2996 RMK A01 T03360161  RH  035%=      5-min Rain = 0
KPD1 191622Z 19011KT 34/16 A2996 RMK A01 T03350160  RH  035%=      5-min Rain = 0
KPD1 191623Z 17010G15KT 33/16 A2996 RMK A01 T03330160  RH  035%=      5-min Rain = 0
KPD1 191624Z 17013KT 33/16 A2996 RMK A01 T03330159  RH  035%=      5-min Rain = 0
KPD1 191625Z 19011G16KT 34/16 A2997 RMK A01 T03360160  RH  035%=      5-min Rain = 0
KPD1 191626Z 19013G18KT 34/16 A2997 RMK A01 T03370158  RH  034%=      5-min Rain = 0
KPD1 191627Z 19012KT 34/16 A2996 RMK A01 T03380160  RH  034%=      5-min Rain = 0
KPD1 191628Z 18014G20KT 34/16 A2997 RMK A01 T03380159  RH  034%=      5-min Rain = 0
KPD1 191629Z 18013KT 34/16 A2996 RMK A01 T03370157  RH  034%=      5-min Rain = 0
KPD1 191630Z 18012KT 34/16 A2996 RMK A01 T03360156  RH  034%=      5-min Rain = 0
KPD1 191631Z 19011KT 34/16 A2996 RMK A01 T03360157  RH  034%=      5-min Rain = 0
KPD1 191632Z 19009G14KT 34/16 A2996 RMK A01 T03370160  RH  035%=      5-min Rain = 0
KPD1 191633Z 19011KT 34/16 A2996 RMK A01 T03390160  RH  034%=      5-min Rain = 0
KPD1 191634Z 19014G21KT 34/16 A2996 RMK A01 T03410159  RH  034%=      5-min Rain = 0
KPD1 191635Z 20014KT 34/16 A2996 RMK A01 T03410156  RH  033%=      5-min Rain = 0
KPD1 191636Z 21010KT 34/16 A2996 RMK A01 T03400156  RH  033%=      5-min Rain = 0
KPD1 191637Z 20012KT 34/16 A2996 RMK A01 T03390155  RH  033%=      5-min Rain = 0
KPD1 191638Z 20010KT 34/16 A2996 RMK A01 T03400156  RH  033%=      5-min Rain = 0
KPD1 191639Z 19013KT 34/16 A2996 RMK A01 T03420158  RH  033%=      5-min Rain = 0
KPD1 191640Z 18010KT 34/16 A2996 RMK A01 T03420159  RH  034%=      5-min Rain = 0
KPD1 191641Z 17010G16KT 35/16 A2996 RMK A01 T03450162  RH  034%=      5-min Rain = 0
KPD1 191642Z 18011KT 35/16 A2996 RMK A01 T03470161  RH  033%=      5-min Rain = 0
KPD1 191643Z 21009KT 35/16 A2996 RMK A01 T03460160  RH  033%=      5-min Rain = 0
KPD1 191644Z 18007KT 35/16 A2996 RMK A01 T03460162  RH  033%=      5-min Rain = 0
KPD1 191645Z 18008KT 35/16 A2996 RMK A01 T03480162  RH  033%=      5-min Rain = 0
KPD1 191646Z 20011G16KT 35/16 A2996 RMK A01 T03510163  RH  033%=      5-min Rain = 0
KPD1 191647Z 21011KT 35/16 A2996 RMK A01 T03520157  RH  031%=      5-min Rain = 0
KPD1 191648Z 20009KT 35/16 A2996 RMK A01 T03520157  RH  031%=      5-min Rain = 0
KPD1 191649Z 19009KT 35/16 A2996 RMK A01 T03500159  RH  032%=      5-min Rain = 0
KPD1 191650Z 21008KT 35/16 A2996 RMK A01 T03510159  RH  032%=      5-min Rain = 0
KPD1 191651Z 21009KT 35/16 A2995 RMK A01 T03500159  RH  032%=      5-min Rain = 0
KPD1 191652Z 21011G16KT 35/16 A2995 RMK A01 T03510159  RH  032%=      5-min Rain = 0
KPD1 191653Z 20014G20KT 35/16 A2995 RMK A01 T03520158  RH  032%=      5-min Rain = 0
KPD1 191654Z 19010KT 35/16 A2996 RMK A01 T03490159  RH  032%=      5-min Rain = 0
KPD1 191655Z 19008KT 35/16 A2995 RMK A01 T03500158  RH  032%=      5-min Rain = 0
KPD1 191656Z 19007KT 35/16 A2995 RMK A01 T03520157  RH  031%=      5-min Rain = 0
KPD1 191657Z 20007KT 35/16 A2995 RMK A01 T03510158  RH  032%=      5-min Rain = 0
KPD1 191658Z 20007G13KT 35/16 A2995 RMK A01 T03530159  RH  032%=      5-min Rain = 0
KPD1 191659Z 19012G18KT 35/16 A2995 RMK A01 T03540159  RH  031%=      5-min Rain = 0
KPD1 191700Z 20010G15KT 35/16 A2995 RMK A01 T03540158  RH  031%=      5-min Rain = 0
KPD1 191701Z 20013KT 35/16 A2995 RMK A01 T03540157  RH  031%=      5-min Rain = 0
KPD1 191702Z 19010KT 35/16 A2995 RMK A01 T03510158  RH  032%=      5-min Rain = 0
KPD1 191703Z 19012G17KT 35/16 A2995 RMK A01 T03510158  RH  032%=      5-min Rain = 0
KPD1 191704Z 18011KT 35/16 A2995 RMK A01 T03510156  RH  031%=      5-min Rain = 0
KPD1 191705Z 19013KT 35/16 A2995 RMK A01 T03520157  RH  031%=      5-min Rain = 0
KPD1 191706Z 19009KT 35/16 A2995 RMK A01 T03530158  RH  031%=      5-min Rain = 0
KPD1 191707Z 18014KT 35/16 A2995 RMK A01 T03540158  RH  031%=      5-min Rain = 0
KPD1 191708Z 19012KT 35/16 A2995 RMK A01 T03530158  RH  031%=      5-min Rain = 0
KPD1 191709Z 21010G16KT 35/16 A2995 RMK A01 T03520157  RH  031%=      5-min Rain = 0
KPD1 191710Z 22009KT 35/16 A2995 RMK A01 T03520157  RH  031%=      5-min Rain = 0
KPD1 191711Z 20008KT 36/16 A2995 RMK A01 T03560160  RH  031%=      5-min Rain = 0
KPD1 191712Z 21009KT 36/16 A2995 RMK A01 T03580158  RH  030%=      5-min Rain = 0
KPD1 191713Z 19011KT 36/16 A2995 RMK A01 T03580156  RH  030%=      5-min Rain = 0
KPD1 191714Z 19011G16KT 36/16 A2995 RMK A01 T03580157  RH  030%=      5-min Rain = 0
KPD1 191715Z 19012KT 36/16 A2995 RMK A01 T03580157  RH  030%=      5-min Rain = 0
KPD1 191716Z 18012G18KT 36/16 A2995 RMK A01 T03590160  RH  031%=      5-min Rain = 0
KPD1 191717Z 18013KT 36/16 A2995 RMK A01 T03600158  RH  030%=      5-min Rain = 0
KPD1 191718Z 20012KT 36/16 A2995 RMK A01 T03570157  RH  031%=      5-min Rain = 0
KPD1 191719Z 18012KT 36/16 A2995 RMK A01 T03570159  RH  031%=      5-min Rain = 0
KPD1 191720Z 18012KT 36/16 A2995 RMK A01 T03570159  RH  031%=      5-min Rain = 0
KPD1 191721Z 19012KT 36/16 A2995 RMK A01 T03580159  RH  031%=      5-min Rain = 0
KPD1 191722Z 20012G18KT 36/16 A2995 RMK A01 T03610156  RH  030%=      5-min Rain = 0
KPD1 191723Z 20011G16KT 36/16 A2995 RMK A01 T03600156  RH  030%=      5-min Rain = 0
KPD1 191724Z 19010KT 36/16 A2995 RMK A01 T03590157  RH  030%=      5-min Rain = 0
KPD1 191725Z 20013KT 36/16 A2995 RMK A01 T03600157  RH  030%=      5-min Rain = 0
KPD1 191726Z 19012KT 36/16 A2995 RMK A01 T03620158  RH  030%=      5-min Rain = 0
KPD1 191727Z 19013KT 36/16 A2995 RMK A01 T03630155  RH  029%=      5-min Rain = 0
KPD1 191728Z 20012KT 36/16 A2995 RMK A01 T03620156  RH  029%=      5-min Rain = 0
KPD1 191729Z 19013G18KT 36/16 A2995 RMK A01 T03620155  RH  029%=      5-min Rain = 0
KPD1 191730Z 19014KT 36/16 A2995 RMK A01 T03620156  RH  029%=      5-min Rain = 0
KPD1 191731Z 20011G17KT 36/16 A2995 RMK A01 T03620158  RH  030%=      5-min Rain = 0
KPD1 191732Z 19013KT 36/16 A2995 RMK A01 T03620159  RH  030%=      5-min Rain = 0
KPD1 191733Z 19013KT 36/16 A2994 RMK A01 T03630158  RH  030%=      5-min Rain = 0
KPD1 191734Z 20012KT 36/16 A2994 RMK A01 T03640159  RH  030%=      5-min Rain = 0
KPD1 191735Z 19013G18KT 36/16 A2994 RMK A01 T03640160  RH  030%=      5-min Rain = 0
KPD1 191736Z 18011KT 37/16 A2994 RMK A01 T03650160  RH  030%=      5-min Rain = 0
KPD1 191737Z 19012KT 37/16 A2994 RMK A01 T03660161  RH  030%=      5-min Rain = 0
KPD1 191738Z 19013KT 36/16 A2994 RMK A01 T03640158  RH  029%=      5-min Rain = 0
KPD1 191739Z 19010KT 36/16 A2994 RMK A01 T03640155  RH  029%=      5-min Rain = 0
KPD1 191740Z 18011KT 37/15 A2994 RMK A01 T03650152  RH  028%=      5-min Rain = 0
KPD1 191741Z 20014KT 37/16 A2994 RMK A01 T03650156  RH  029%=      5-min Rain = 0
KPD1 191742Z 20013KT 37/16 A2994 RMK A01 T03660157  RH  029%=      5-min Rain = 0
KPD1 191743Z 20012KT 37/15 A2994 RMK A01 T03660154  RH  028%=      5-min Rain = 0
KPD1 191744Z 19009KT 37/16 A2994 RMK A01 T03650157  RH  029%=      5-min Rain = 0
KPD1 191745Z 20011G16KT 37/16 A2994 RMK A01 T03670158  RH  029%=      5-min Rain = 0
KPD1 191746Z 21012KT 37/16 A2994 RMK A01 T03690158  RH  029%=      5-min Rain = 0
KPD1 191747Z 19010KT 37/16 A2994 RMK A01 T03670159  RH  029%=      5-min Rain = 0
KPD1 191748Z 21013G20KT 37/16 A2994 RMK A01 T03660158  RH  029%=      5-min Rain = 0
KPD1 191749Z 20013KT 37/16 A2994 RMK A01 T03660155  RH  028%=      5-min Rain = 0
KPD1 191750Z 19014KT 37/15 A2994 RMK A01 T03660153  RH  028%=      5-min Rain = 0
KPD1 191751Z 20011KT 37/16 A2994 RMK A01 T03650155  RH  029%=      5-min Rain = 0
KPD1 191752Z 20010KT 37/16 A2994 RMK A01 T03670158  RH  029%=      5-min Rain = 0
KPD1 191753Z 19010KT 37/16 A2994 RMK A01 T03700159  RH  029%=      5-min Rain = 0
KPD1 191754Z 19008KT 37/16 A2994 RMK A01 T03730161  RH  029%=      5-min Rain = 0
KPD1 191755Z 21011G18KT 37/16 A2994 RMK A01 T03740158  RH  028%=      5-min Rain = 0
KPD1 191756Z 21013G19KT 37/16 A2994 RMK A01 T03700156  RH  028%=      5-min Rain = 0
KPD1 191757Z 20011G17KT 37/16 A2994 RMK A01 T03670157  RH  029%=      5-min Rain = 0
KPD1 191758Z 20014G19KT 37/16 A2994 RMK A01 T03700157  RH  028%=      5-min Rain = 0
KPD1 191759Z 18011G17KT 37/16 A2994 RMK A01 T03730157  RH  028%=      5-min Rain = 0
KPD1 191800Z 19009KT 38/16 A2994 RMK A01 T03750159  RH  028%=      5-min Rain = 0
KPD1 191801Z 20010G16KT 38/16 A2994 RMK A01 T03750157  RH  027%=      5-min Rain = 0
KPD1 191802Z 19014G19KT 37/16 A2994 RMK A01 T03730156  RH  028%=      5-min Rain = 0
KPD1 191803Z 18011KT 37/16 A2994 RMK A01 T03740155  RH  027%=      5-min Rain = 0
KPD1 191804Z 19013KT 37/16 A2994 RMK A01 T03740155  RH  028%=      5-min Rain = 0
KPD1 191805Z 19009G14KT 37/15 A2994 RMK A01 T03740154  RH  027%=      5-min Rain = 0
KPD1 191806Z 19010G15KT 37/16 A2994 RMK A01 T03740156  RH  028%=      5-min Rain = 0
KPD1 191807Z 21010G15KT 38/16 A2994 RMK A01 T03760157  RH  028%=      5-min Rain = 0
KPD1 191808Z 20008KT 38/16 A2993 RMK A01 T03770159  RH  028%=      5-min Rain = 0
KPD1 191809Z 19007KT 38/16 A2993 RMK A01 T03810162  RH  028%=      5-min Rain = 0
KPD1 191810Z 17011G17KT 38/16 A2993 RMK A01 T03840161  RH  027%=      5-min Rain = 0
KPD1 191811Z 18011G18KT 38/16 A2993 RMK A01 T03840162  RH  027%=      5-min Rain = 0
KPD1 191812Z 18010KT 38/16 A2993 RMK A01 T03840160  RH  027%=      5-min Rain = 0
KPD1 191813Z 18013KT 38/16 A2993 RMK A01 T03820158  RH  027%=      5-min Rain = 0
KPD1 191814Z 18009KT 38/16 A2993 RMK A01 T03810157  RH  027%=      5-min Rain = 0
KPD1 191815Z 19011G16KT 38/16 A2993 RMK A01 T03800159  RH  027%=      5-min Rain = 0
KPD1 191816Z 19013KT 38/16 A2993 RMK A01 T03810159  RH  027%=      5-min Rain = 0
KPD1 191817Z 19013KT 38/16 A2993 RMK A01 T03800157  RH  027%=      5-min Rain = 0
KPD1 191818Z 20012KT 38/16 A2993 RMK A01 T03760157  RH  027%=      5-min Rain = 0
KPD1 191819Z 19009KT 38/16 A2993 RMK A01 T03750159  RH  028%=      5-min Rain = 0
KPD1 191820Z 19012G17KT 38/16 A2993 RMK A01 T03780161  RH  028%=      5-min Rain = 0
KPD1 191821Z 20008KT 38/16 A2993 RMK A01 T03810159  RH  027%=      5-min Rain = 0
KPD1 191822Z 20009KT 38/16 A2993 RMK A01 T03820158  RH  027%=      5-min Rain = 0
KPD1 191823Z 20010KT 38/16 A2993 RMK A01 T03830157  RH  026%=      5-min Rain = 0
KPD1 191824Z 19013G21KT 38/16 A2993 RMK A01 T03840159  RH  027%=      5-min Rain = 0
KPD1 191825Z 20013G18KT 38/16 A2993 RMK A01 T03830159  RH  027%=      5-min Rain = 0
KPD1 191826Z 19011KT 38/16 A2993 RMK A01 T03820161  RH  027%=      5-min Rain = 0
KPD1 191827Z 18009KT 38/16 A2993 RMK A01 T03760160  RH  028%=      5-min Rain = 0
KPD1 191828Z 18012KT 38/16 A2993 RMK A01 T03750159  RH  028%=      5-min Rain = 0
KPD1 191829Z 19014G19KT 38/16 A2993 RMK A01 T03770159  RH  028%=      5-min Rain = 0
KPD1 191830Z 19015KT 38/16 A2993 RMK A01 T03790158  RH  027%=      5-min Rain = 0
KPD1 191831Z 18012G18KT 38/16 A2993 RMK A01 T03800158  RH  027%=      5-min Rain = 0
KPD1 191832Z 19010KT 38/16 A2993 RMK A01 T03780158  RH  027%=      5-min Rain = 0
KPD1 191833Z 19013G18KT 38/16 A2993 RMK A01 T03780158  RH  027%=      5-min Rain = 0
KPD1 191834Z 21015KT 38/16 A2993 RMK A01 T03780156  RH  027%=      5-min Rain = 0
KPD1 191835Z 22014G19KT 38/16 A2993 RMK A01 T03780156  RH  027%=      5-min Rain = 0
KPD1 191836Z 22013KT 38/16 A2993 RMK A01 T03780157  RH  027%=      5-min Rain = 0
KPD1 191837Z 19016KT 38/16 A2993 RMK A01 T03780156  RH  027%=      5-min Rain = 0
KPD1 191838Z 18012KT 38/16 A2993 RMK A01 T03790155  RH  027%=      5-min Rain = 0
KPD1 191839Z 19010KT 38/16 A2993 RMK A01 T03790157  RH  027%=      5-min Rain = 0
KPD1 191840Z 21010KT 38/16 A2993 RMK A01 T03780156  RH  027%=      5-min Rain = 0
KPD1 191841Z 19008KT 38/16 A2993 RMK A01 T03790158  RH  027%=      5-min Rain = 0
KPD1 191842Z 19012KT 38/16 A2993 RMK A01 T03800159  RH  027%=      5-min Rain = 0
KPD1 191843Z 16010KT 38/16 A2993 RMK A01 T03840158  RH  026%=      5-min Rain = 0
KPD1 191844Z 17009KT 38/16 A2993 RMK A01 T03840156  RH  026%=      5-min Rain = 0
KPD1 191845Z 17006KT 39/16 A2993 RMK A01 T03850157  RH  026%=      5-min Rain = 0
KPD1 191846Z 16012G20KT 39/16 A2993 RMK A01 T03860158  RH  026%=      5-min Rain = 0
KPD1 191847Z 17015KT 39/16 A2993 RMK A01 T03890155  RH  025%=      5-min Rain = 0
KPD1 191848Z 16015KT 39/15 A2993 RMK A01 T03880153  RH  025%=      5-min Rain = 0
KPD1 191849Z 17013G18KT 39/15 A2993 RMK A01 T03860153  RH  025%=      5-min Rain = 0
KPD1 191850Z 19017G24KT 39/15 A2993 RMK A01 T03870154  RH  025%=      5-min Rain = 0
KPD1 191851Z 18014KT 39/15 A2993 RMK A01 T03860153  RH  025%=      5-min Rain = 0
KPD1 191852Z 18014KT 39/15 A2993 RMK A01 T03850149  RH  025%=      5-min Rain = 0
KPD1 191853Z 18015G20KT 38/15 A2993 RMK A01 T03820149  RH  025%=      5-min Rain = 0
KPD1 191854Z 17015KT 38/15 A2993 RMK A01 T03810152  RH  026%=      5-min Rain = 0
KPD1 191855Z 18011KT 38/16 A2993 RMK A01 T03830156  RH  026%=      5-min Rain = 0
KPD1 191856Z 17011G19KT 38/16 A2993 RMK A01 T03840157  RH  026%=      5-min Rain = 0
KPD1 191857Z 17011G18KT 39/16 A2993 RMK A01 T03880159  RH  026%=      5-min Rain = 0
KPD1 191858Z 18011G17KT 39/16 A2993 RMK A01 T03910160  RH  026%=      5-min Rain = 0
KPD1 191859Z 20015G21KT 39/16 A2993 RMK A01 T03910156  RH  025%=      5-min Rain = 0
KPD1 191900Z 19012KT 39/15 A2992 RMK A01 T03860153  RH  025%=      5-min Rain = 0
KPD1 191901Z 18017G22KT 39/15 A2992 RMK A01 T03860153  RH  025%=      5-min Rain = 0
KPD1 191902Z 19015G21KT 39/15 A2993 RMK A01 T03860150  RH  025%=      5-min Rain = 0
KPD1 191903Z 19015G20KT 39/15 A2993 RMK A01 T03870153  RH  025%=      5-min Rain = 0
KPD1 191904Z 19013G18KT 39/15 A2993 RMK A01 T03860151  RH  025%=      5-min Rain = 0
KPD1 191905Z 18009KT 39/15 A2993 RMK A01 T03860154  RH  026%=      5-min Rain = 0
KPD1 191906Z 20010KT 39/15 A2993 RMK A01 T03880154  RH  025%=      5-min Rain = 0
KPD1 191907Z 19011KT 39/15 A2992 RMK A01 T03900154  RH  025%=      5-min Rain = 0
KPD1 191908Z 20009KT 39/16 A2992 RMK A01 T03870156  RH  026%=      5-min Rain = 0
KPD1 191909Z 20014KT 38/16 A2992 RMK A01 T03840156  RH  026%=      5-min Rain = 0
KPD1 191910Z 18011G16KT 39/16 A2992 RMK A01 T03850158  RH  026%=      5-min Rain = 0
KPD1 191911Z 17009G14KT 39/16 A2992 RMK A01 T03910160  RH  026%=      5-min Rain = 0
KPD1 191912Z 18015G21KT 40/16 A2992 RMK A01 T03970158  RH  025%=      5-min Rain = 0
KPD1 191913Z 18014KT 40/15 A2992 RMK A01 T03960148  RH  023%=      5-min Rain = 0
KPD1 191914Z 16013G22KT 39/15 A2992 RMK A01 T03920145  RH  023%=      5-min Rain = 0
KPD1 191915Z 16018G23KT 39/15 A2992 RMK A01 T03910146  RH  024%=      5-min Rain = 0
KPD1 191916Z 16014KT 39/15 A2992 RMK A01 T03880147  RH  024%=      5-min Rain = 0
KPD1 191917Z 16014G19KT 39/15 A2992 RMK A01 T03870150  RH  025%=      5-min Rain = 0
KPD1 191918Z 18014G20KT 39/15 A2992 RMK A01 T03880146  RH  024%=      5-min Rain = 0
KPD1 191919Z 18010KT 39/15 A2992 RMK A01 T03880145  RH  024%=      5-min Rain = 0
KPD1 191920Z 15012KT 39/15 A2992 RMK A01 T03880149  RH  024%=      5-min Rain = 0
KPD1 191921Z 16013KT 39/15 A2992 RMK A01 T03910150  RH  024%=      5-min Rain = 0
KPD1 191922Z 16010G15KT 39/15 A2992 RMK A01 T03920152  RH  024%=      5-min Rain = 0
KPD1 191923Z 17009G16KT 39/16 A2992 RMK A01 T03940155  RH  025%=      5-min Rain = 0
KPD1 191924Z 17011KT 40/15 A2992 RMK A01 T03960153  RH  024%=      5-min Rain = 0
KPD1 191925Z 16012G17KT 39/15 A2992 RMK A01 T03940153  RH  024%=      5-min Rain = 0
KPD1 191926Z 18013KT 40/15 A2992 RMK A01 T03950152  RH  024%=      5-min Rain = 0
KPD1 191927Z 17010G15KT 39/15 A2992 RMK A01 T03940151  RH  024%=      5-min Rain = 0
KPD1 191928Z 18008KT 39/15 A2992 RMK A01 T03940152  RH  024%=      5-min Rain = 0
KPD1 191929Z 17010G15KT 39/15 A2992 RMK A01 T03940151  RH  024%=      5-min Rain = 0
KPD1 191930Z 18013KT 39/15 A2992 RMK A01 T03930151  RH  024%=      5-min Rain = 0
KPD1 191931Z 20017KT 39/15 A2992 RMK A01 T03920148  RH  024%=      5-min Rain = 0
KPD1 191932Z 18013KT 39/14 A2992 RMK A01 T03910144  RH  023%=      5-min Rain = 0
KPD1 191933Z 18013KT 39/14 A2992 RMK A01 T03910144  RH  023%=      5-min Rain = 0
KPD1 191934Z 18013KT 39/14 A2992 RMK A01 T03930143  RH  023%=      5-min Rain = 0
KPD1 191935Z 19013KT 39/14 A2992 RMK A01 T03930142  RH  023%=      5-min Rain = 0
KPD1 191936Z 17011KT 39/14 A2992 RMK A01 T03910143  RH  023%=      5-min Rain = 0
KPD1 191937Z 18012KT 39/15 A2992 RMK A01 T03930145  RH  023%=      5-min Rain = 0
KPD1 191938Z 18014KT 40/14 A2992 RMK A01 T03950141  RH  022%=      5-min Rain = 0
KPD1 191939Z 18014KT 39/14 A2991 RMK A01 T03930139  RH  022%=      5-min Rain = 0
KPD1 191940Z 17011KT 39/14 A2992 RMK A01 T03940137  RH  022%=      5-min Rain = 0
KPD1 191941Z 16012KT 40/14 A2991 RMK A01 T03950141  RH  022%=      5-min Rain = 0
KPD1 191942Z 16011KT 40/14 A2991 RMK A01 T03970142  RH  022%=      5-min Rain = 0
KPD1 191943Z 16010G15KT 40/14 A2991 RMK A01 T03980140  RH  022%=      5-min Rain = 0
KPD1 191944Z 18010KT 40/15 A2991 RMK A01 T03980145  RH  023%=      5-min Rain = 0
KPD1 191945Z 19008KT 40/14 A2991 RMK A01 T03980142  RH  022%=      5-min Rain = 0
KPD1 191946Z 19011G16KT 40/15 A2991 RMK A01 T03980145  RH  023%=      5-min Rain = 0
KPD1 191947Z 17011KT 40/15 A2991 RMK A01 T03980146  RH  023%=      5-min Rain = 0
KPD1 191948Z 17012KT 40/15 A2991 RMK A01 T03980148  RH  023%=      5-min Rain = 0
KPD1 191949Z 20011G16KT 40/15 A2991 RMK A01 T03990149  RH  023%=      5-min Rain = 0
KPD1 191950Z 18008G14KT 40/15 A2991 RMK A01 T03950148  RH  023%=      5-min Rain = 0
KPD1 191951Z 17011G19KT 39/15 A2991 RMK A01 T03930147  RH  024%=      5-min Rain = 0
KPD1 191952Z 17014KT 40/14 A2991 RMK A01 T03950143  RH  023%=      5-min Rain = 0
KPD1 191953Z 19015G21KT 40/14 A2991 RMK A01 T03960139  RH  022%=      5-min Rain = 0
KPD1 191954Z 19013G18KT 40/13 A2991 RMK A01 T03970134  RH  021%=      5-min Rain = 0
KPD1 191955Z 19009KT 39/14 A2991 RMK A01 T03940136  RH  022%=      5-min Rain = 0
KPD1 191956Z 17008KT 39/14 A2991 RMK A01 T03920137  RH  022%=      5-min Rain = 0
KPD1 191957Z 17008KT 39/14 A2991 RMK A01 T03940141  RH  022%=      5-min Rain = 0
KPD1 191958Z 18011KT 40/14 A2991 RMK A01 T03960143  RH  023%=      5-min Rain = 0
KPD1 191959Z 18012G17KT 40/14 A2991 RMK A01 T04000144  RH  022%=      5-min Rain = 0
KPD1 192000Z 18011G18KT 40/14 A2991 RMK A01 T04000144  RH  022%=      5-min Rain = 0
KPD1 192001Z 19012G20KT 40/15 A2991 RMK A01 T03990147  RH  023%=      5-min Rain = 0
KPD1 192002Z 18018G23KT 40/14 A2991 RMK A01 T04000143  RH  022%=      5-min Rain = 0
KPD1 192003Z 18016KT 40/14 A2991 RMK A01 T03970142  RH  022%=      5-min Rain = 0
KPD1 192004Z 18014KT 40/14 A2991 RMK A01 T03960142  RH  022%=      5-min Rain = 0
KPD1 192005Z 20013KT 40/14 A2991 RMK A01 T03950143  RH  023%=      5-min Rain = 0
KPD1 192006Z 20011G16KT 40/14 A2991 RMK A01 T03960144  RH  023%=      5-min Rain = 0
KPD1 192007Z 20016G21KT 40/14 A2991 RMK A01 T03970144  RH  023%=      5-min Rain = 0
KPD1 192008Z 19014KT 40/14 A2991 RMK A01 T03970144  RH  023%=      5-min Rain = 0
KPD1 192009Z 19012G17KT 40/15 A2991 RMK A01 T03960145  RH  023%=      5-min Rain = 0
KPD1 192010Z 19014G20KT 40/15 A2991 RMK A01 T03950145  RH  023%=      5-min Rain = 0
KPD1 192011Z 19014KT 40/14 A2991 RMK A01 T03950144  RH  023%=      5-min Rain = 0
KPD1 192012Z 19012KT 39/15 A2991 RMK A01 T03940146  RH  023%=      5-min Rain = 0
KPD1 192013Z 21013G19KT 40/15 A2991 RMK A01 T03950148  RH  023%=      5-min Rain = 0
KPD1 192014Z 22012KT 40/15 A299 RMK A01 T03960147  RH  023%=      5-min Rain = 0
KPD1 192015Z 18013G20KT 40/15 A2991 RMK A01 T03950148  RH  023%=      5-min Rain = 0
KPD1 192016Z 18009G14KT 39/15 A299 RMK A01 T03940148  RH  023%=      5-min Rain = 0
KPD1 192017Z 16010KT 40/15 A299 RMK A01 T03950148  RH  023%=      5-min Rain = 0
KPD1 192018Z 16008G13KT 40/15 A299 RMK A01 T03990151  RH  023%=      5-min Rain = 0
KPD1 192019Z 17013KT 40/15 A299 RMK A01 T04040148  RH  022%=      5-min Rain = 0
KPD1 192020Z 16013G18KT 40/15 A299 RMK A01 T04030146  RH  022%=      5-min Rain = 0
KPD1 192021Z 18010KT 40/14 A299 RMK A01 T04010144  RH  022%=      5-min Rain = 0
KPD1 192022Z 19010KT 40/15 A299 RMK A01 T04000147  RH  023%=      5-min Rain = 0
KPD1 192023Z 19010KT 40/15 A299 RMK A01 T04030149  RH  023%=      5-min Rain = 0
KPD1 192024Z 19007G12KT 41/15 A299 RMK A01 T04050148  RH  022%=      5-min Rain = 0
KPD1 192025Z 19013G18KT 41/15 A299 RMK A01 T04060150  RH  022%=      5-min Rain = 0
KPD1 192026Z 18010KT 41/15 A299 RMK A01 T04050146  RH  022%=      5-min Rain = 0
KPD1 192027Z 19012KT 40/15 A299 RMK A01 T04000146  RH  022%=      5-min Rain = 0
KPD1 192028Z 18009KT 40/15 A299 RMK A01 T03950147  RH  023%=      5-min Rain = 0
KPD1 192029Z 16010KT 40/15 A299 RMK A01 T03960151  RH  024%=      5-min Rain = 0
KPD1 192030Z 16010KT 40/15 A299 RMK A01 T03980154  RH  024%=      5-min Rain = 0
KPD1 192031Z 17014G20KT 40/15 A299 RMK A01 T04000153  RH  024%=      5-min Rain = 0
KPD1 192032Z 17012G19KT 40/15 A299 RMK A01 T03980151  RH  023%=      5-min Rain = 0
KPD1 192033Z 16017KT 40/15 A299 RMK A01 T03970152  RH  024%=      5-min Rain = 0
KPD1 192034Z 18017KT 40/15 A299 RMK A01 T03970151  RH  024%=      5-min Rain = 0
KPD1 192035Z 18013G21KT 40/15 A299 RMK A01 T03960152  RH  024%=      5-min Rain = 0
KPD1 192036Z 18015G20KT 40/15 A299 RMK A01 T03960152  RH  024%=      5-min Rain = 0
KPD1 192037Z 18015G22KT 40/15 A299 RMK A01 T03950152  RH  024%=      5-min Rain = 0
KPD1 192038Z 17010KT 39/15 A299 RMK A01 T03930150  RH  024%=      5-min Rain = 0
KPD1 192039Z 17009KT 39/15 A299 RMK A01 T03930151  RH  024%=      5-min Rain = 0
KPD1 192040Z 16014G22KT 40/15 A299 RMK A01 T03960153  RH  024%=      5-min Rain = 0
KPD1 192041Z 17018KT 40/15 A299 RMK A01 T03990152  RH  023%=      5-min Rain = 0
KPD1 192042Z 17012G18KT 40/15 A299 RMK A01 T03980149  RH  023%=      5-min Rain = 0
KPD1 192043Z 19009G16KT 40/15 A299 RMK A01 T03970150  RH  023%=      5-min Rain = 0
KPD1 192044Z 16012G17KT 40/15 A299 RMK A01 T03960150  RH  024%=      5-min Rain = 0
KPD1 192045Z 16014G21KT 40/15 A299 RMK A01 T03980150  RH  023%=      5-min Rain = 0
KPD1 192046Z 17016G22KT 40/15 A299 RMK A01 T04000150  RH  023%=      5-min Rain = 0
KPD1 192047Z 18017KT 40/15 A299 RMK A01 T03970148  RH  023%=      5-min Rain = 0
KPD1 192048Z 19012KT 39/15 A299 RMK A01 T03940148  RH  024%=      5-min Rain = 0
KPD1 192049Z 17015KT 39/15 A299 RMK A01 T03930149  RH  024%=      5-min Rain = 0
KPD1 192050Z 16012KT 39/15 A299 RMK A01 T03930149  RH  024%=      5-min Rain = 0
KPD1 192051Z 17009KT 40/15 A299 RMK A01 T03960151  RH  024%=      5-min Rain = 0
KPD1 192052Z 15010KT 40/15 A299 RMK A01 T03970151  RH  024%=      5-min Rain = 0
KPD1 192053Z 15006KT 40/15 A2989 RMK A01 T03980150  RH  023%=      5-min Rain = 0
KPD1 192054Z 17008KT 40/15 A2989 RMK A01 T03990151  RH  023%=      5-min Rain = 0
KPD1 192055Z 17006KT 40/15 A2989 RMK A01 T04000152  RH  023%=      5-min Rain = 0
KPD1 192056Z 15012G18KT 40/15 A299 RMK A01 T04030152  RH  023%=      5-min Rain = 0
KPD1 192057Z 17015KT 41/15 A2989 RMK A01 T04050152  RH  023%=      5-min Rain = 0
KPD1 192058Z 18014G19KT 40/15 A2989 RMK A01 T04040151  RH  023%=      5-min Rain = 0
KPD1 192059Z 18017KT 40/15 A2989 RMK A01 T04010150  RH  023%=      5-min Rain = 0
KPD1 192100Z 17012G17KT 40/15 A2989 RMK A01 T03990151  RH  023%=      5-min Rain = 0
KPD1 192101Z 16010G18KT 40/15 A2989 RMK A01 T03990151  RH  023%=      5-min Rain = 0
KPD1 192102Z 16015G20KT 40/15 A2989 RMK A01 T04010151  RH  023%=      5-min Rain = 0
KPD1 192103Z 15016G21KT 40/15 A2989 RMK A01 T04000150  RH  023%=      5-min Rain = 0
KPD1 192104Z 18016G22KT 40/15 A2989 RMK A01 T03980149  RH  023%=      5-min Rain = 0
KPD1 192105Z 19014KT 40/15 A2989 RMK A01 T03960150  RH  024%=      5-min Rain = 0
KPD1 192106Z 19015G22KT 40/15 A2989 RMK A01 T03980152  RH  024%=      5-min Rain = 0
KPD1 192107Z 18015G20KT 40/15 A2989 RMK A01 T03990151  RH  023%=      5-min Rain = 0
KPD1 192108Z 17012KT 40/15 A2989 RMK A01 T03990151  RH  023%=      5-min Rain = 0
KPD1 192109Z 18012KT 40/15 A2989 RMK A01 T03980150  RH  023%=      5-min Rain = 0
KPD1 192110Z 17013KT 40/15 A2989 RMK A01 T03990149  RH  023%=      5-min Rain = 0
KPD1 192111Z 16015G21KT 40/15 A2989 RMK A01 T04000148  RH  023%=      5-min Rain = 0
KPD1 192112Z 19015G21KT 40/15 A2989 RMK A01 T04000148  RH  023%=      5-min Rain = 0
KPD1 192113Z 19012G18KT 40/15 A2989 RMK A01 T04020149  RH  023%=      5-min Rain = 0
KPD1 192114Z 18009KT 40/15 A2989 RMK A01 T04030151  RH  023%=      5-min Rain = 0
KPD1 192115Z 16010KT 41/15 A2989 RMK A01 T04060150  RH  022%=      5-min Rain = 0
KPD1 192116Z 16011KT 40/15 A2989 RMK A01 T04020147  RH  022%=      5-min Rain = 0
KPD1 192117Z 15014G19KT 40/15 A2989 RMK A01 T03960146  RH  023%=      5-min Rain = 0
KPD1 192118Z 15015G20KT 39/14 A2989 RMK A01 T03920144  RH  023%=      5-min Rain = 0
KPD1 192119Z 16012KT 39/14 A2989 RMK A01 T03880143  RH  024%=      5-min Rain = 0
KPD1 192120Z 17009G14KT 39/15 A2989 RMK A01 T03850145  RH  024%=      5-min Rain = 0
KPD1 192121Z 16018G29KT 39/15 A2988 RMK A01 T03870145  RH  024%=      5-min Rain = 0
KPD1 192122Z 18017G24KT 39/15 A2989 RMK A01 T03900145  RH  024%=      5-min Rain = 0
KPD1 192123Z 17012KT 39/15 A2989 RMK A01 T03920146  RH  024%=      5-min Rain = 0
KPD1 192124Z 18015KT 39/15 A2989 RMK A01 T03910146  RH  024%=      5-min Rain = 0
KPD1 192125Z 19010G17KT 39/15 A2988 RMK A01 T03880146  RH  024%=      5-min Rain = 0
KPD1 192126Z 18012KT 39/15 A2988 RMK A01 T03890148  RH  024%=      5-min Rain = 0
KPD1 192127Z 15012KT 39/15 A2988 RMK A01 T03940150  RH  024%=      5-min Rain = 0
KPD1 192128Z 17011KT 40/15 A2988 RMK A01 T03970148  RH  023%=      5-min Rain = 0
KPD1 192129Z 17009KT 40/15 A2988 RMK A01 T03980149  RH  023%=      5-min Rain = 0
KPD1 192130Z 16008KT 40/15 A2988 RMK A01 T04000152  RH  023%=      5-min Rain = 0
KPD1 192131Z 15010G18KT 40/15 A2988 RMK A01 T04040151  RH  023%=      5-min Rain = 0
KPD1 192132Z 17018G24KT 41/15 A2988 RMK A01 T04050149  RH  022%=      5-min Rain = 0
KPD1 192133Z 15012KT 40/15 A2988 RMK A01 T04000146  RH  023%=      5-min Rain = 0
KPD1 192134Z 18010KT 40/15 A2988 RMK A01 T03960146  RH  023%=      5-min Rain = 0
KPD1 192135Z 17009KT 40/15 A2988 RMK A01 T03950147  RH  023%=      5-min Rain = 0
KPD1 192136Z 16012KT 40/15 A2988 RMK A01 T03950148  RH  023%=      5-min Rain = 0
KPD1 192137Z 16010G15KT 40/15 A2988 RMK A01 T03960146  RH  023%=      5-min Rain = 0
KPD1 192138Z 16010KT 40/15 A2988 RMK A01 T03970147  RH  023%=      5-min Rain = 0
KPD1 192139Z 16012G17KT 40/15 A2988 RMK A01 T03980146  RH  023%=      5-min Rain = 0
KPD1 192140Z 17012KT 40/15 A2988 RMK A01 T04000147  RH  023%=      5-min Rain = 0
KPD1 192141Z 17011G17KT 40/15 A2988 RMK A01 T04010146  RH  022%=      5-min Rain = 0
KPD1 192142Z 18013G20KT 40/15 A2988 RMK A01 T04010145  RH  022%=      5-min Rain = 0
KPD1 192143Z 19011KT 40/14 A2988 RMK A01 T04020143  RH  022%=      5-min Rain = 0
KPD1 192144Z 21015G20KT 40/14 A2988 RMK A01 T04040142  RH  021%=      5-min Rain = 0
KPD1 192145Z 18014G19KT 40/14 A2988 RMK A01 T04030143  RH  022%=      5-min Rain = 0
KPD1 192146Z 17013G18KT 40/14 A2988 RMK A01 T04030143  RH  022%=      5-min Rain = 0
KPD1 192147Z 18011KT 40/14 A2988 RMK A01 T04020143  RH  022%=      5-min Rain = 0
KPD1 192148Z 20016KT 40/14 A2988 RMK A01 T04030144  RH  022%=      5-min Rain = 0
KPD1 192149Z 20013KT 40/14 A2988 RMK A01 T04010141  RH  022%=      5-min Rain = 0
KPD1 192150Z 18014G20KT 40/14 A2988 RMK A01 T03950141  RH  022%=      5-min Rain = 0
KPD1 192151Z 18014G19KT 39/14 A2988 RMK A01 T03890139  RH  023%=      5-min Rain = 0
KPD1 192152Z 18009KT 39/14 A2988 RMK A01 T03850139  RH  023%=      5-min Rain = 0
KPD1 192153Z 17007KT 38/14 A2988 RMK A01 T03840141  RH  024%=      5-min Rain = 0
KPD1 192154Z 15010G17KT 39/14 A2988 RMK A01 T03880142  RH  023%=      5-min Rain = 0
KPD1 192155Z 15013KT 39/14 A2988 RMK A01 T03910142  RH  023%=      5-min Rain = 0
KPD1 192156Z 16012G17KT 40/14 A2988 RMK A01 T03950142  RH  022%=      5-min Rain = 0
KPD1 192157Z 16011G19KT 40/14 A2988 RMK A01 T03970141  RH  022%=      5-min Rain = 0
KPD1 192158Z 16015KT 40/14 A2988 RMK A01 T03980141  RH  022%=      5-min Rain = 0
KPD1 192159Z 17011G16KT 40/14 A2988 RMK A01 T03980144  RH  022%=      5-min Rain = 0
KPD1 192200Z 18014G20KT 40/15 A2987 RMK A01 T03990145  RH  023%=      5-min Rain = 0
KPD1 192201Z 17011KT 40/15 A2988 RMK A01 T03980145  RH  023%=      5-min Rain = 0
KPD1 192202Z 17009G14KT 40/15 A2988 RMK A01 T03980147  RH  023%=      5-min Rain = 0
KPD1 192203Z 15009G15KT 40/15 A2988 RMK A01 T03990146  RH  023%=      5-min Rain = 0
KPD1 192204Z 15010KT 40/15 A2988 RMK A01 T04000145  RH  022%=      5-min Rain = 0
KPD1 192205Z 14009G14KT 40/15 A2988 RMK A01 T03990147  RH  023%=      5-min Rain = 0
KPD1 192206Z 15010G16KT 40/15 A2988 RMK A01 T03980146  RH  023%=      5-min Rain = 0
KPD1 192207Z 17014KT 40/14 A2987 RMK A01 T03990144  RH  022%=      5-min Rain = 0
KPD1 192208Z 16014G19KT 40/14 A2987 RMK A01 T03990143  RH  022%=      5-min Rain = 0
KPD1 192209Z 19008KT 40/14 A2988 RMK A01 T03960141  RH  022%=      5-min Rain = 0
KPD1 192210Z 19011KT 40/14 A2988 RMK A01 T03980142  RH  022%=      5-min Rain = 0
KPD1 192211Z 20008KT 40/14 A2987 RMK A01 T04010142  RH  022%=      5-min Rain = 0
KPD1 192212Z 20006KT 40/14 A2987 RMK A01 T04020142  RH  022%=      5-min Rain = 0
KPD1 192213Z 18011KT 40/14 A2987 RMK A01 T04040142  RH  021%=      5-min Rain = 0
KPD1 192214Z 18016KT 41/14 A2988 RMK A01 T04060141  RH  021%=      5-min Rain = 0
KPD1 192215Z 19018G23KT 40/14 A2988 RMK A01 T04030140  RH  021%=      5-min Rain = 0
KPD1 192216Z 19016G21KT 40/14 A2988 RMK A01 T03980138  RH  022%=      5-min Rain = 0
KPD1 192217Z 19012G17KT 40/14 A2988 RMK A01 T03950139  RH  022%=      5-min Rain = 0
KPD1 192218Z 20013KT 39/14 A2987 RMK A01 T03940138  RH  022%=      5-min Rain = 0
KPD1 192219Z 19015KT 39/14 A2987 RMK A01 T03940140  RH  022%=      5-min Rain = 0
KPD1 192220Z 19014G22KT 39/14 A2987 RMK A01 T03890140  RH  023%=      5-min Rain = 0
KPD1 192221Z 18011G19KT 38/14 A2987 RMK A01 T03840141  RH  024%=      5-min Rain = 0
KPD1 192222Z 15011G16KT 38/14 A2987 RMK A01 T03810142  RH  024%=      5-min Rain = 0
KPD1 192223Z 14015KT 38/14 A2987 RMK A01 T03810143  RH  024%=      5-min Rain = 0
KPD1 192224Z 14015G22KT 38/14 A2987 RMK A01 T03820143  RH  024%=      5-min Rain = 0
KPD1 192225Z 15010G16KT 39/15 A2987 RMK A01 T03870146  RH  024%=      5-min Rain = 0
KPD1 192226Z 15010KT 39/15 A2987 RMK A01 T03920149  RH  024%=      5-min Rain = 0
KPD1 192227Z 16008KT 40/15 A2987 RMK A01 T03960149  RH  023%=      5-min Rain = 0
KPD1 192228Z 18008KT 40/15 A2987 RMK A01 T03980148  RH  023%=      5-min Rain = 0
KPD1 192229Z 19018G26KT 40/15 A2987 RMK A01 T03990147  RH  023%=      5-min Rain = 0
KPD1 192230Z 18008G15KT 39/14 A2987 RMK A01 T03930144  RH  023%=      5-min Rain = 0
KPD1 192231Z 16009KT 39/15 A2987 RMK A01 T03890146  RH  024%=      5-min Rain = 0
KPD1 192232Z 16010KT 39/15 A2987 RMK A01 T03900146  RH  024%=      5-min Rain = 0
KPD1 192233Z 17013G18KT 39/15 A2987 RMK A01 T03920147  RH  024%=      5-min Rain = 0
KPD1 192234Z 16011G17KT 39/15 A2987 RMK A01 T03940146  RH  023%=      5-min Rain = 0
KPD1 192235Z 17013G19KT 40/15 A2987 RMK A01 T03950147  RH  023%=      5-min Rain = 0
KPD1 192236Z 16008G13KT 40/15 A2987 RMK A01 T03950147  RH  023%=      5-min Rain = 0
KPD1 192237Z 16010G15KT 40/15 A2987 RMK A01 T03970146  RH  023%=      5-min Rain = 0
KPD1 192238Z 18009G15KT 40/15 A2987 RMK A01 T03970147  RH  023%=      5-min Rain = 0
KPD1 192239Z 16015G21KT 40/15 A2987 RMK A01 T03980145  RH  023%=      5-min Rain = 0
KPD1 192240Z 17014G21KT 40/14 A2987 RMK A01 T03980141  RH  022%=      5-min Rain = 0
KPD1 192241Z 16015KT 40/14 A2987 RMK A01 T03960138  RH  022%=      5-min Rain = 0
KPD1 192242Z 18014KT 40/14 A2987 RMK A01 T03950140  RH  022%=      5-min Rain = 0
KPD1 192243Z 18011KT 39/14 A2987 RMK A01 T03940141  RH  022%=      5-min Rain = 0
KPD1 192244Z 17011KT 40/14 A2987 RMK A01 T03950142  RH  023%=      5-min Rain = 0
KPD1 192245Z 17014KT 39/14 A2987 RMK A01 T03940142  RH  023%=      5-min Rain = 0
KPD1 192246Z 17013KT 39/14 A2987 RMK A01 T03940143  RH  023%=      5-min Rain = 0
KPD1 192247Z 18014G19KT 40/14 A2987 RMK A01 T03960143  RH  023%=      5-min Rain = 0
KPD1 192248Z 18012G17KT 40/14 A2987 RMK A01 T03960143  RH  023%=      5-min Rain = 0
KPD1 192249Z 17014G19KT 40/14 A2987 RMK A01 T03960143  RH  023%=      5-min Rain = 0
KPD1 192250Z 17014KT 39/14 A2987 RMK A01 T03930141  RH  023%=      5-min Rain = 0
KPD1 192251Z 17013G19KT 39/14 A2987 RMK A01 T03930142  RH  023%=      5-min Rain = 0
KPD1 192252Z 18011KT 39/14 A2987 RMK A01 T03930144  RH  023%=      5-min Rain = 0
KPD1 192253Z 16015G21KT 39/14 A2987 RMK A01 T03940143  RH  023%=      5-min Rain = 0
KPD1 192254Z 17013G19KT 39/14 A2987 RMK A01 T03930142  RH  023%=      5-min Rain = 0
KPD1 192255Z 16012KT 39/14 A2987 RMK A01 T03910142  RH  023%=      5-min Rain = 0
KPD1 192256Z 17012KT 39/14 A2987 RMK A01 T03890142  RH  023%=      5-min Rain = 0
KPD1 192257Z 17013G18KT 39/14 A2987 RMK A01 T03880142  RH  023%=      5-min Rain = 0
KPD1 192258Z 18013KT 39/14 A2987 RMK A01 T03890141  RH  023%=      5-min Rain = 0
KPD1 192259Z 19013G18KT 39/14 A2987 RMK A01 T03910141  RH  023%=      5-min Rain = 0
KPD1 192300Z 18015KT 39/14 A2987 RMK A01 T03920140  RH  023%=      5-min Rain = 0
KPD1 192301Z 18011KT 39/14 A2987 RMK A01 T03920139  RH  022%=      5-min Rain = 0
KPD1 192302Z 19012KT 39/14 A2987 RMK A01 T03910139  RH  023%=      5-min Rain = 0
KPD1 192303Z 18013G18KT 39/14 A2987 RMK A01 T03900140  RH  023%=      5-min Rain = 0
KPD1 192304Z 18013KT 39/14 A2987 RMK A01 T03890139  RH  023%=      5-min Rain = 0
KPD1 192305Z 19014G20KT 39/14 A2987 RMK A01 T03880138  RH  023%=      5-min Rain = 0
KPD1 192306Z 19015KT 39/14 A2987 RMK A01 T03880139  RH  023%=      5-min Rain = 0
KPD1 192307Z 17016G21KT 39/14 A2987 RMK A01 T03880137  RH  023%=      5-min Rain = 0
KPD1 192308Z 17014KT 39/14 A2987 RMK A01 T03860136  RH  023%=      5-min Rain = 0
KPD1 192309Z 18012KT 39/14 A2987 RMK A01 T03850137  RH  023%=      5-min Rain = 0
KPD1 192310Z 17012KT 39/14 A2987 RMK A01 T03850139  RH  023%=      5-min Rain = 0
KPD1 192311Z 19009G14KT 39/14 A2987 RMK A01 T03860141  RH  023%=      5-min Rain = 0
KPD1 192312Z 18009KT 39/14 A2987 RMK A01 T03880140  RH  023%=      5-min Rain = 0
KPD1 192313Z 19009KT 39/14 A2987 RMK A01 T03890140  RH  023%=      5-min Rain = 0
KPD1 192314Z 19012KT 39/14 A2987 RMK A01 T03900141  RH  023%=      5-min Rain = 0
KPD1 192315Z 19011KT 39/14 A2987 RMK A01 T03900142  RH  023%=      5-min Rain = 0
KPD1 192316Z 19015G23KT 39/14 A2987 RMK A01 T03910141  RH  023%=      5-min Rain = 0
KPD1 192317Z 18015KT 39/14 A2987 RMK A01 T03910140  RH  023%=      5-min Rain = 0
KPD1 192318Z 18013KT 39/14 A2987 RMK A01 T03880139  RH  023%=      5-min Rain = 0
KPD1 192319Z 19011G16KT 39/14 A2987 RMK A01 T03880140  RH  023%=      5-min Rain = 0
KPD1 192320Z 19013KT 39/14 A2987 RMK A01 T03880140  RH  023%=      5-min Rain = 0
KPD1 192321Z 20011KT 39/14 A2987 RMK A01 T03870139  RH  023%=      5-min Rain = 0
KPD1 192322Z 18014G19KT 39/14 A2987 RMK A01 T03870138  RH  023%=      5-min Rain = 0
KPD1 192323Z 20010KT 39/14 A2987 RMK A01 T03880138  RH  023%=      5-min Rain = 0
KPD1 192324Z 18012KT 39/14 A2987 RMK A01 T03870138  RH  023%=      5-min Rain = 0
KPD1 192325Z 16013KT 39/14 A2987 RMK A01 T03880139  RH  023%=      5-min Rain = 0
KPD1 192326Z 16016KT 39/14 A2987 RMK A01 T03880138  RH  023%=      5-min Rain = 0
KPD1 192327Z 16016KT 39/14 A2987 RMK A01 T03870138  RH  023%=      5-min Rain = 0
KPD1 192328Z 17014G21KT 39/14 A2987 RMK A01 T03850138  RH  023%=      5-min Rain = 0
KPD1 192329Z 17012G18KT 39/14 A2987 RMK A01 T03850139  RH  023%=      5-min Rain = 0
KPD1 192330Z 16014KT 39/14 A2987 RMK A01 T03850139  RH  023%=      5-min Rain = 0
KPD1 192331Z 17014G20KT 39/14 A2987 RMK A01 T03850140  RH  023%=      5-min Rain = 0
KPD1 192332Z 18016G23KT 39/14 A2987 RMK A01 T03850140  RH  023%=      5-min Rain = 0
KPD1 192333Z 17017G24KT 39/14 A2987 RMK A01 T03850140  RH  023%=      5-min Rain = 0
KPD1 192334Z 16013KT 38/14 A2987 RMK A01 T03820138  RH  024%=      5-min Rain = 0
KPD1 192335Z 17011G16KT 38/14 A2987 RMK A01 T03820140  RH  024%=      5-min Rain = 0
KPD1 192336Z 16014G20KT 38/14 A2987 RMK A01 T03820140  RH  024%=      5-min Rain = 0
KPD1 192337Z 18015KT 38/14 A2987 RMK A01 T03820139  RH  024%=      5-min Rain = 0
KPD1 192338Z 19014G19KT 38/14 A2987 RMK A01 T03830139  RH  024%=      5-min Rain = 0
KPD1 192339Z 19015G22KT 38/14 A2987 RMK A01 T03830139  RH  024%=      5-min Rain = 0
KPD1 192340Z 18014G19KT 38/14 A2987 RMK A01 T03820138  RH  024%=      5-min Rain = 0
KPD1 192341Z 16011KT 38/14 A2987 RMK A01 T03830139  RH  024%=      5-min Rain = 0
KPD1 192342Z 16012G17KT 38/14 A2987 RMK A01 T03830140  RH  024%=      5-min Rain = 0
KPD1 192343Z 15012KT 38/14 A2987 RMK A01 T03830138  RH  023%=      5-min Rain = 0
KPD1 192344Z 16013KT 38/14 A2987 RMK A01 T03830138  RH  023%=      5-min Rain = 0
KPD1 192345Z 17012KT 38/14 A2987 RMK A01 T03820138  RH  023%=      5-min Rain = 0
KPD1 192346Z 16009KT 38/14 A2987 RMK A01 T03820139  RH  024%=      5-min Rain = 0
KPD1 192347Z 17009G14KT 38/14 A2987 RMK A01 T03830140  RH  024%=      5-min Rain = 0
KPD1 192348Z 17011KT 38/14 A2987 RMK A01 T03830138  RH  023%=      5-min Rain = 0
KPD1 192349Z 17012G21KT 38/14 A2987 RMK A01 T03840138  RH  023%=      5-min Rain = 0
KPD1 192350Z 16014G22KT 38/14 A2987 RMK A01 T03830137  RH  023%=      5-min Rain = 0
KPD1 192351Z 17009KT 38/14 A2987 RMK A01 T03830138  RH  023%=      5-min Rain = 0
KPD1 192352Z 17012KT 38/14 A2987 RMK A01 T03830138  RH  023%=      5-min Rain = 0
KPD1 192353Z 18012G17KT 38/14 A2987 RMK A01 T03830137  RH  023%=      5-min Rain = 0
KPD1 192354Z 16013KT 38/14 A2987 RMK A01 T03810136  RH  023%=      5-min Rain = 0
KPD1 192355Z 17010KT 38/13 A2987 RMK A01 T03790134  RH  023%=      5-min Rain = 0
KPD1 192356Z 19012KT 38/14 A2987 RMK A01 T03770135  RH  024%=      5-min Rain = 0
KPD1 192357Z 18012G19KT 38/14 A2987 RMK A01 T03760135  RH  024%=      5-min Rain = 0
KPD1 192358Z 17017G22KT 37/13 A2987 RMK A01 T03740134  RH  024%=      5-min Rain = 0
KPD1 192359Z 17015G20KT 37/13 A2987 RMK A01 T03720132  RH  024%=      5-min Rain = 0
KPD1 200000Z 18013KT 37/13 A2987 RMK A01 T03700133  RH  024%=      5-min Rain = 0
KPD1 200001Z 18016G21KT 37/13 A2987 RMK A01 T03690132  RH  024%=      5-min Rain = 0
KPD1 200002Z 17014G19KT 37/13 A2987 RMK A01 T03680132  RH  024%=      5-min Rain = 0
KPD1 200003Z 17013KT 37/13 A2987 RMK A01 T03670132  RH  024%=      5-min Rain = 0
KPD1 200004Z 18014G20KT 37/13 A2987 RMK A01 T03670132  RH  025%=      5-min Rain = 0
KPD1 200005Z 18015KT 37/13 A2987 RMK A01 T03670132  RH  025%=      5-min Rain = 0
KPD1 200006Z 17014G19KT 37/13 A2987 RMK A01 T03670132  RH  025%=      5-min Rain = 0
KPD1 200007Z 17012KT 37/13 A2987 RMK A01 T03660132  RH  025%=      5-min Rain = 0
KPD1 200008Z 17015G21KT 37/13 A2987 RMK A01 T03660131  RH  025%=      5-min Rain = 0
KPD1 200009Z 17012G19KT 37/13 A2987 RMK A01 T03660132  RH  025%=      5-min Rain = 0
KPD1 200010Z 17012KT 37/13 A2987 RMK A01 T03660132  RH  025%=      5-min Rain = 0
KPD1 200011Z 16011G17KT 37/13 A2987 RMK A01 T03660131  RH  025%=      5-min Rain = 0
KPD1 200012Z 17015KT 37/13 A2987 RMK A01 T03650132  RH  025%=      5-min Rain = 0
KPD1 200013Z 17013G18KT 37/13 A2987 RMK A01 T03650131  RH  025%=      5-min Rain = 0
KPD1 200014Z 16015G21KT 37/13 A2987 RMK A01 T03650131  RH  025%=      5-min Rain = 0
KPD1 200015Z 17014KT 37/13 A2987 RMK A01 T03650131  RH  025%=      5-min Rain = 0
KPD1 200016Z 16012KT 37/13 A2987 RMK A01 T03650131  RH  025%=      5-min Rain = 0
KPD1 200017Z 17013KT 36/13 A2988 RMK A01 T03640131  RH  025%=      5-min Rain = 0
KPD1 200018Z 18015G20KT 36/13 A2988 RMK A01 T03640131  RH  025%=      5-min Rain = 0
KPD1 200019Z 19014KT 36/13 A2988 RMK A01 T03630129  RH  025%=      5-min Rain = 0
KPD1 200020Z 18015KT 36/13 A2988 RMK A01 T03630129  RH  025%=      5-min Rain = 0
KPD1 200021Z 18010KT 36/13 A2988 RMK A01 T03630129  RH  025%=      5-min Rain = 0
KPD1 200022Z 18012KT 36/13 A2988 RMK A01 T03630131  RH  025%=      5-min Rain = 0
KPD1 200023Z 18012G18KT 36/13 A2988 RMK A01 T03620129  RH  025%=      5-min Rain = 0
KPD1 200024Z 18014G21KT 36/13 A2988 RMK A01 T03620129  RH  025%=      5-min Rain = 0
KPD1 200025Z 18013G18KT 36/13 A2988 RMK A01 T03620129  RH  025%=      5-min Rain = 0
KPD1 200026Z 17012KT 36/13 A2988 RMK A01 T03620129  RH  025%=      5-min Rain = 0
KPD1 200027Z 17016KT 36/13 A2988 RMK A01 T03620129  RH  025%=      5-min Rain = 0
KPD1 200028Z 17013G18KT 36/13 A2988 RMK A01 T03620128  RH  025%=      5-min Rain = 0
KPD1 200029Z 17012KT 36/13 A2988 RMK A01 T03610128  RH  025%=      5-min Rain = 0
KPD1 200030Z 17011KT 36/13 A2988 RMK A01 T03600128  RH  025%=      5-min Rain = 0
KPD1 200031Z 17009KT 36/13 A2988 RMK A01 T03600128  RH  025%=      5-min Rain = 0
KPD1 200032Z 17011KT 36/13 A2988 RMK A01 T03610129  RH  025%=      5-min Rain = 0
KPD1 200033Z 17013KT 36/13 A2988 RMK A01 T03600129  RH  025%=      5-min Rain = 0
KPD1 200034Z 16012G17KT 36/13 A2988 RMK A01 T03600128  RH  025%=      5-min Rain = 0
KPD1 200035Z 17012KT 36/13 A2988 RMK A01 T03600127  RH  025%=      5-min Rain = 0
KPD1 200036Z 17012G17KT 36/13 A2988 RMK A01 T03590128  RH  025%=      5-min Rain = 0
KPD1 200037Z 17013KT 36/13 A2988 RMK A01 T03590127  RH  025%=      5-min Rain = 0
KPD1 200038Z 17011G19KT 36/13 A2988 RMK A01 T03590127  RH  025%=      5-min Rain = 0
KPD1 200039Z 17013KT 36/13 A2988 RMK A01 T03590127  RH  025%=      5-min Rain = 0
KPD1 200040Z 17013KT 36/13 A2988 RMK A01 T03590127  RH  025%=      5-min Rain = 0
KPD1 200041Z 16011KT 36/13 A2988 RMK A01 T03580127  RH  025%=      5-min Rain = 0
KPD1 200042Z 17015KT 36/13 A2988 RMK A01 T03590127  RH  025%=      5-min Rain = 0
KPD1 200043Z 17011KT 36/13 A2988 RMK A01 T03590127  RH  025%=      5-min Rain = 0
KPD1 200044Z 17012KT 36/13 A2988 RMK A01 T03580127  RH  025%=      5-min Rain = 0
KPD1 200045Z 17009KT 36/13 A2988 RMK A01 T03580127  RH  025%=      5-min Rain = 0
KPD1 200046Z 18011G16KT 36/13 A2988 RMK A01 T03580128  RH  025%=      5-min Rain = 0
KPD1 200047Z 18010KT 36/13 A2988 RMK A01 T03580127  RH  025%=      5-min Rain = 0
KPD1 200048Z 18012KT 36/13 A2988 RMK A01 T03570126  RH  025%=      5-min Rain = 0
KPD1 200049Z 18010G18KT 36/13 A2988 RMK A01 T03570126  RH  025%=      5-min Rain = 0
KPD1 200050Z 18011G17KT 36/13 A2988 RMK A01 T03570126  RH  025%=      5-min Rain = 0
KPD1 200051Z 18014G19KT 36/13 A2989 RMK A01 T03570126  RH  025%=      5-min Rain = 0
KPD1 200052Z 19014KT 36/13 A2988 RMK A01 T03570125  RH  025%=      5-min Rain = 0
KPD1 200053Z 17009KT 36/13 A2989 RMK A01 T03570125  RH  025%=      5-min Rain = 0
KPD1 200054Z 16011KT 36/13 A2989 RMK A01 T03570126  RH  025%=      5-min Rain = 0
KPD1 200055Z 18009KT 36/13 A2989 RMK A01 T03570126  RH  025%=      5-min Rain = 0
KPD1 200056Z 18013G18KT 36/13 A2989 RMK A01 T03570126  RH  025%=      5-min Rain = 0
KPD1 200057Z 18010KT 36/13 A2989 RMK A01 T03560125  RH  025%=      5-min Rain = 0
KPD1 200058Z 17012KT 36/13 A2989 RMK A01 T03560125  RH  025%=      5-min Rain = 0
KPD1 200059Z 18014G20KT 36/13 A2989 RMK A01 T03560125  RH  025%=      5-min Rain = 0
KPD1 200100Z 18012G18KT 36/13 A2989 RMK A01 T03560125  RH  025%=      5-min Rain = 0
KPD1 200101Z 18013KT 36/12 A2989 RMK A01 T03560124  RH  025%=      5-min Rain = 0
KPD1 200102Z 18011KT 36/13 A2989 RMK A01 T03570126  RH  025%=      5-min Rain = 0
KPD1 200103Z 17013KT 36/13 A2989 RMK A01 T03560125  RH  025%=      5-min Rain = 0
KPD1 200104Z 18011KT 36/13 A2989 RMK A01 T03560125  RH  025%=      5-min Rain = 0
KPD1 200105Z 18010G15KT 36/13 A2989 RMK A01 T03560125  RH  025%=      5-min Rain = 0
KPD1 200106Z 18012G17KT 36/13 A2989 RMK A01 T03560125  RH  025%=      5-min Rain = 0
KPD1 200107Z 18009G15KT 36/13 A2989 RMK A01 T03550125  RH  025%=      5-min Rain = 0
KPD1 200108Z 18011G16KT 36/13 A2989 RMK A01 T03550125  RH  025%=      5-min Rain = 0
KPD1 200109Z 17014KT 35/12 A2989 RMK A01 T03540124  RH  025%=      5-min Rain = 0
KPD1 200110Z 18011KT 35/13 A2989 RMK A01 T03540125  RH  025%=      5-min Rain = 0
KPD1 200111Z 17012G17KT 35/13 A2989 RMK A01 T03540125  RH  025%=      5-min Rain = 0
KPD1 200112Z 17010KT 35/13 A2989 RMK A01 T03540125  RH  025%=      5-min Rain = 0
KPD1 200113Z 18010KT 35/13 A2989 RMK A01 T03530125  RH  025%=      5-min Rain = 0
KPD1 200114Z 18011KT 35/13 A2989 RMK A01 T03530125  RH  025%=      5-min Rain = 0
KPD1 200115Z 18009G15KT 35/12 A2989 RMK A01 T03520124  RH  025%=      5-min Rain = 0
KPD1 200116Z 17012KT 35/13 A2989 RMK A01 T03520125  RH  025%=      5-min Rain = 0
KPD1 200117Z 16010KT 35/12 A2989 RMK A01 T03510124  RH  025%=      5-min Rain = 0
KPD1 200118Z 17008KT 35/13 A2989 RMK A01 T03520125  RH  025%=      5-min Rain = 0
KPD1 200119Z 18009KT 35/13 A2989 RMK A01 T03510126  RH  026%=      5-min Rain = 0
KPD1 200120Z 18011G19KT 35/13 A2989 RMK A01 T03500125  RH  026%=      5-min Rain = 0
KPD1 200121Z 18012G18KT 35/12 A2989 RMK A01 T03490124  RH  026%=      5-min Rain = 0
KPD1 200122Z 17012G18KT 35/12 A2989 RMK A01 T03500124  RH  026%=      5-min Rain = 0
KPD1 200123Z 17009KT 35/12 A2989 RMK A01 T03510124  RH  025%=      5-min Rain = 0
KPD1 200124Z 18010KT 35/12 A2989 RMK A01 T03510124  RH  025%=      5-min Rain = 0
KPD1 200125Z 17012KT 35/12 A2989 RMK A01 T03500124  RH  026%=      5-min Rain = 0
KPD1 200126Z 18010G15KT 35/12 A2989 RMK A01 T03490124  RH  026%=      5-min Rain = 0
KPD1 200127Z 17010KT 35/12 A2989 RMK A01 T03500124  RH  026%=      5-min Rain = 0
KPD1 200128Z 18010KT 35/12 A2989 RMK A01 T03490124  RH  026%=      5-min Rain = 0
KPD1 200129Z 17011KT 35/12 A2989 RMK A01 T03490124  RH  026%=      5-min Rain = 0
KPD1 200130Z 18010KT 35/12 A2989 RMK A01 T03490123  RH  026%=      5-min Rain = 0
KPD1 200131Z 18011KT 35/12 A2989 RMK A01 T03480123  RH  026%=      5-min Rain = 0
KPD1 200132Z 18011KT 35/12 A2989 RMK A01 T03490124  RH  026%=      5-min Rain = 0
KPD1 200133Z 18012KT 35/12 A2989 RMK A01 T03480123  RH  026%=      5-min Rain = 0
KPD1 200134Z 18012G18KT 35/12 A2989 RMK A01 T03490124  RH  026%=      5-min Rain = 0
KPD1 200135Z 18011KT 35/12 A2989 RMK A01 T03480124  RH  026%=      5-min Rain = 0
KPD1 200136Z 18013KT 35/12 A2989 RMK A01 T03480124  RH  026%=      5-min Rain = 0
KPD1 200137Z 18014G19KT 35/12 A2989 RMK A01 T03480124  RH  026%=      5-min Rain = 0
KPD1 200138Z 18012KT 35/12 A2989 RMK A01 T03470123  RH  026%=      5-min Rain = 0
KPD1 200139Z 17009KT 35/12 A2989 RMK A01 T03480124  RH  026%=      5-min Rain = 0
KPD1 200140Z 17009KT 35/12 A2989 RMK A01 T03470124  RH  026%=      5-min Rain = 0
KPD1 200141Z 17008G13KT 35/12 A2989 RMK A01 T03460124  RH  026%=      5-min Rain = 0
KPD1 200142Z 17009KT 35/12 A2989 RMK A01 T03450124  RH  026%=      5-min Rain = 0
KPD1 200143Z 17011G16KT 35/13 A2989 RMK A01 T03450125  RH  026%=      5-min Rain = 0
KPD1 200144Z 18010KT 34/12 A2989 RMK A01 T03440124  RH  026%=      5-min Rain = 0
KPD1 200145Z 17010G15KT 35/13 A2989 RMK A01 T03450125  RH  026%=      5-min Rain = 0
KPD1 200146Z 18012KT 35/13 A2989 RMK A01 T03450125  RH  027%=      5-min Rain = 0
KPD1 200147Z 18009KT 34/12 A2989 RMK A01 T03440124  RH  027%=      5-min Rain = 0
KPD1 200148Z 18011KT 34/13 A2989 RMK A01 T03440125  RH  027%=      5-min Rain = 0
KPD1 200149Z 17012KT 34/13 A2989 RMK A01 T03440125  RH  027%=      5-min Rain = 0
KPD1 200150Z 17009KT 34/13 A299 RMK A01 T03430125  RH  027%=      5-min Rain = 0
KPD1 200151Z 17008KT 34/13 A299 RMK A01 T03430125  RH  027%=      5-min Rain = 0
KPD1 200152Z 17009KT 34/13 A299 RMK A01 T03420125  RH  027%=      5-min Rain = 0
KPD1 200153Z 18009KT 34/13 A299 RMK A01 T03420125  RH  027%=      5-min Rain = 0
KPD1 200154Z 18011KT 34/13 A299 RMK A01 T03410125  RH  027%=      5-min Rain = 0
KPD1 200155Z 17009KT 34/13 A299 RMK A01 T03410125  RH  027%=      5-min Rain = 0
KPD1 200156Z 17008KT 34/13 A299 RMK A01 T03410126  RH  027%=      5-min Rain = 0
KPD1 200157Z 17011KT 34/13 A299 RMK A01 T03400126  RH  027%=      5-min Rain = 0
KPD1 200158Z 16011KT 34/13 A299 RMK A01 T03400127  RH  028%=      5-min Rain = 0
KPD1 200159Z 17011KT 34/13 A299 RMK A01 T03400128  RH  028%=      5-min Rain = 0
KPD1 200200Z 17012KT 34/13 A299 RMK A01 T03400128  RH  028%=      5-min Rain = 0
KPD1 200201Z 17012KT 34/13 A299 RMK A01 T03400128  RH  028%=      5-min Rain = 0
KPD1 200202Z 16012KT 34/13 A299 RMK A01 T03410129  RH  028%=      5-min Rain = 0
KPD1 200203Z 17010KT 34/13 A299 RMK A01 T03400130  RH  028%=      5-min Rain = 0
KPD1 200204Z 17009KT 34/13 A299 RMK A01 T03410131  RH  028%=      5-min Rain = 0
KPD1 200205Z 16010KT 34/13 A299 RMK A01 T03390130  RH  028%=      5-min Rain = 0
KPD1 200206Z 17010KT 34/13 A299 RMK A01 T03390131  RH  028%=      5-min Rain = 0
KPD1 200207Z 15009KT 34/13 A299 RMK A01 T03380131  RH  029%=      5-min Rain = 0
KPD1 200208Z 17008G14KT 34/13 A299 RMK A01 T03370131  RH  029%=      5-min Rain = 0
KPD1 200209Z 16009KT 34/13 A299 RMK A01 T03360131  RH  029%=      5-min Rain = 0
KPD1 200210Z 17008KT 34/13 A299 RMK A01 T03370133  RH  029%=      5-min Rain = 0
KPD1 200211Z 17009KT 34/13 A299 RMK A01 T03360132  RH  029%=      5-min Rain = 0
KPD1 200212Z 17011KT 34/13 A299 RMK A01 T03360133  RH  029%=      5-min Rain = 0
KPD1 200213Z 17010KT 34/13 A299 RMK A01 T03350133  RH  029%=      5-min Rain = 0
KPD1 200214Z 17011KT 34/13 A299 RMK A01 T03350134  RH  030%=      5-min Rain = 0
KPD1 200215Z 18007KT 34/13 A299 RMK A01 T03350134  RH  030%=      5-min Rain = 0
KPD1 200216Z 18012KT 34/13 A299 RMK A01 T03350134  RH  030%=      5-min Rain = 0
KPD1 200217Z 17010KT 34/13 A299 RMK A01 T03350134  RH  030%=      5-min Rain = 0
KPD1 200218Z 18011KT 34/13 A299 RMK A01 T03350134  RH  030%=      5-min Rain = 0
KPD1 200219Z 17010KT 34/14 A299 RMK A01 T03350135  RH  030%=      5-min Rain = 0
KPD1 200220Z 18008KT 34/13 A299 RMK A01 T03350134  RH  030%=      5-min Rain = 0
KPD1 200221Z 18009KT 33/13 A299 RMK A01 T03340134  RH  030%=      5-min Rain = 0
KPD1 200222Z 17008KT 33/14 A299 RMK A01 T03340135  RH  030%=      5-min Rain = 0
KPD1 200223Z 17007KT 33/14 A299 RMK A01 T03340135  RH  030%=      5-min Rain = 0
KPD1 200224Z 16009KT 33/14 A299 RMK A01 T03330135  RH  030%=      5-min Rain = 0
KPD1 200225Z 16013KT 33/14 A299 RMK A01 T03320135  RH  030%=      5-min Rain = 0
KPD1 200226Z 16011KT 33/14 A299 RMK A01 T03330135  RH  030%=      5-min Rain = 0
KPD1 200227Z 17011KT 33/14 A299 RMK A01 T03320135  RH  030%=      5-min Rain = 0
KPD1 200228Z 17011KT 33/14 A299 RMK A01 T03330136  RH  030%=      5-min Rain = 0
KPD1 200229Z 17010KT 33/14 A299 RMK A01 T03330135  RH  030%=      5-min Rain = 0
KPD1 200230Z 17007KT 33/14 A299 RMK A01 T03330135  RH  030%=      5-min Rain = 0
KPD1 200231Z 17010KT 33/14 A2991 RMK A01 T03330136  RH  030%=      5-min Rain = 0
KPD1 200232Z 17011KT 33/14 A2991 RMK A01 T03310135  RH  030%=      5-min Rain = 0
KPD1 200233Z 17010G15KT 33/14 A2991 RMK A01 T03310135  RH  031%=      5-min Rain = 0
KPD1 200234Z 17009KT 33/14 A2991 RMK A01 T03310135  RH  031%=      5-min Rain = 0
KPD1 200235Z 17008KT 33/14 A2991 RMK A01 T03310136  RH  031%=      5-min Rain = 0
KPD1 200236Z 16009KT 33/14 A2991 RMK A01 T03310136  RH  031%=      5-min Rain = 0
KPD1 200237Z 17010KT 33/14 A2991 RMK A01 T03300135  RH  031%=      5-min Rain = 0
KPD1 200238Z 17012KT 33/14 A2991 RMK A01 T03310136  RH  031%=      5-min Rain = 0
KPD1 200239Z 17011KT 33/14 A2991 RMK A01 T03300136  RH  031%=      5-min Rain = 0
KPD1 200240Z 17012KT 33/14 A2991 RMK A01 T03310136  RH  031%=      5-min Rain = 0
KPD1 200241Z 16013KT 33/14 A2991 RMK A01 T03310136  RH  031%=      5-min Rain = 0
KPD1 200242Z 17011G18KT 33/14 A2991 RMK A01 T03300135  RH  031%=      5-min Rain = 0
KPD1 200243Z 17012KT 33/13 A2991 RMK A01 T03300134  RH  031%=      5-min Rain = 0
KPD1 200244Z 17010KT 33/14 A2991 RMK A01 T03310135  RH  031%=      5-min Rain = 0
KPD1 200245Z 17011KT 33/14 A2991 RMK A01 T03310135  RH  031%=      5-min Rain = 0
KPD1 200246Z 17013G18KT 33/14 A2991 RMK A01 T03300135  RH  031%=      5-min Rain = 0
KPD1 200247Z 17012G17KT 33/14 A2991 RMK A01 T03300135  RH  031%=      5-min Rain = 0
KPD1 200248Z 18012KT 33/13 A2991 RMK A01 T03290134  RH  031%=      5-min Rain = 0
KPD1 200249Z 17012KT 33/13 A2991 RMK A01 T03290134  RH  031%=      5-min Rain = 0
KPD1 200250Z 16011KT 33/14 A2991 RMK A01 T03300135  RH  031%=      5-min Rain = 0
KPD1 200251Z 17012KT 33/13 A2991 RMK A01 T03300134  RH  031%=      5-min Rain = 0
KPD1 200252Z 18010KT 33/13 A2991 RMK A01 T03290134  RH  031%=      5-min Rain = 0
KPD1 200253Z 17012KT 33/13 A2991 RMK A01 T03290134  RH  031%=      5-min Rain = 0
KPD1 200254Z 16014KT 33/13 A2991 RMK A01 T03290134  RH  031%=      5-min Rain = 0
KPD1 200255Z 18012G17KT 33/13 A2991 RMK A01 T03290133  RH  031%=      5-min Rain = 0
KPD1 200256Z 17012KT 33/13 A2991 RMK A01 T03290133  RH  031%=      5-min Rain = 0
KPD1 200257Z 17013KT 33/13 A2991 RMK A01 T03290133  RH  030%=      5-min Rain = 0
KPD1 200258Z 18012G17KT 33/13 A2991 RMK A01 T03300133  RH  030%=      5-min Rain = 0
KPD1 200259Z 17011KT 33/13 A2991 RMK A01 T03300133  RH  030%=      5-min Rain = 0
KPD1 200300Z 17008KT 33/13 A2991 RMK A01 T03290133  RH  030%=      5-min Rain = 0
KPD1 200301Z 16012G18KT 33/13 A2991 RMK A01 T03290133  RH  031%=      5-min Rain = 0
KPD1 200302Z 17011KT 33/13 A2991 RMK A01 T03280132  RH  031%=      5-min Rain = 0
KPD1 200303Z 18011G17KT 33/13 A2991 RMK A01 T03270132  RH  031%=      5-min Rain = 0
KPD1 200304Z 17011KT 33/13 A2991 RMK A01 T03270132  RH  031%=      5-min Rain = 0
KPD1 200305Z 18009G14KT 33/13 A2991 RMK A01 T03270132  RH  031%=      5-min Rain = 0
KPD1 200306Z 17010KT 33/13 A2991 RMK A01 T03270132  RH  031%=      5-min Rain = 0
KPD1 200307Z 17010G16KT 33/13 A2991 RMK A01 T03260132  RH  031%=      5-min Rain = 0
KPD1 200308Z 17014KT 33/13 A2991 RMK A01 T03270132  RH  031%=      5-min Rain = 0
KPD1 200309Z 17013G19KT 33/13 A2991 RMK A01 T03260130  RH  031%=      5-min Rain = 0
KPD1 200310Z 17012G17KT 33/13 A2991 RMK A01 T03270131  RH  030%=      5-min Rain = 0
KPD1 200311Z 17012KT 33/13 A2991 RMK A01 T03280131  RH  030%=      5-min Rain = 0
KPD1 200312Z 17010KT 33/13 A2991 RMK A01 T03280131  RH  030%=      5-min Rain = 0
KPD1 200313Z 16009KT 33/13 A2991 RMK A01 T03270131  RH  030%=      5-min Rain = 0
KPD1 200314Z 17010KT 33/13 A2991 RMK A01 T03260131  RH  031%=      5-min Rain = 0
KPD1 200315Z 17011KT 33/13 A2991 RMK A01 T03260131  RH  031%=      5-min Rain = 0
KPD1 200316Z 17008KT 33/13 A2991 RMK A01 T03260131  RH  031%=      5-min Rain = 0
KPD1 200317Z 17007KT 33/13 A2991 RMK A01 T03260131  RH  031%=      5-min Rain = 0
KPD1 200318Z 18009KT 33/13 A2991 RMK A01 T03250131  RH  031%=      5-min Rain = 0
KPD1 200319Z 16007KT 32/13 A2991 RMK A01 T03230130  RH  031%=      5-min Rain = 0
KPD1 200320Z 17007KT 32/13 A2992 RMK A01 T03230131  RH  031%=      5-min Rain = 0
KPD1 200321Z 17012KT 32/13 A2991 RMK A01 T03230131  RH  031%=      5-min Rain = 0
KPD1 200322Z 17011KT 32/13 A2992 RMK A01 T03220129  RH  031%=      5-min Rain = 0
KPD1 200323Z 17011KT 32/13 A2992 RMK A01 T03240131  RH  031%=      5-min Rain = 0
KPD1 200324Z 17011G16KT 32/13 A2992 RMK A01 T03230129  RH  031%=      5-min Rain = 0
KPD1 200325Z 18013KT 32/13 A2992 RMK A01 T03230129  RH  031%=      5-min Rain = 0
KPD1 200326Z 17010KT 32/13 A2992 RMK A01 T03230129  RH  031%=      5-min Rain = 0
KPD1 200327Z 17009KT 32/13 A2992 RMK A01 T03240129  RH  031%=      5-min Rain = 0
KPD1 200328Z 17013KT 32/13 A2991 RMK A01 T03240130  RH  031%=      5-min Rain = 0
KPD1 200329Z 17011KT 32/13 A2991 RMK A01 T03230129  RH  031%=      5-min Rain = 0
KPD1 200330Z 17010KT 32/13 A2992 RMK A01 T03230129  RH  031%=      5-min Rain = 0
KPD1 200331Z 17010G15KT 32/13 A2992 RMK A01 T03220129  RH  031%=      5-min Rain = 0
KPD1 200332Z 17010KT 32/13 A2992 RMK A01 T03220129  RH  031%=      5-min Rain = 0
KPD1 200333Z 17009G16KT 32/13 A2992 RMK A01 T03220129  RH  031%=      5-min Rain = 0
KPD1 200334Z 18012KT 32/13 A2992 RMK A01 T03220130  RH  031%=      5-min Rain = 0
KPD1 200335Z 17012KT 32/13 A2992 RMK A01 T03210128  RH  031%=      5-min Rain = 0
KPD1 200336Z 17011KT 32/13 A2992 RMK A01 T03220128  RH  031%=      5-min Rain = 0
KPD1 200337Z 17010KT 32/13 A2992 RMK A01 T03220129  RH  031%=      5-min Rain = 0
KPD1 200338Z 17013KT 32/13 A2992 RMK A01 T03220128  RH  031%=      5-min Rain = 0
KPD1 200339Z 17013KT 32/13 A2992 RMK A01 T03220128  RH  031%=      5-min Rain = 0
KPD1 200340Z 17012G17KT 32/13 A2992 RMK A01 T03220129  RH  031%=      5-min Rain = 0
KPD1 200341Z 18010KT 32/13 A2992 RMK A01 T03220129  RH  031%=      5-min Rain = 0
KPD1 200342Z 18011KT 32/13 A2992 RMK A01 T03220129  RH  031%=      5-min Rain = 0
KPD1 200343Z 17013KT 32/13 A2992 RMK A01 T03210128  RH  031%=      5-min Rain = 0
KPD1 200344Z 17013KT 32/13 A2992 RMK A01 T03200128  RH  031%=      5-min Rain = 0
KPD1 200345Z 18011KT 32/13 A2992 RMK A01 T03210129  RH  031%=      5-min Rain = 0
KPD1 200346Z 17011KT 32/13 A2992 RMK A01 T03210129  RH  031%=      5-min Rain = 0
KPD1 200347Z 18011G16KT 32/13 A2992 RMK A01 T03210128  RH  031%=      5-min Rain = 0
KPD1 200348Z 18010KT 32/13 A2992 RMK A01 T03200128  RH  031%=      5-min Rain = 0
KPD1 200349Z 17015KT 32/13 A2992 RMK A01 T03200128  RH  031%=      5-min Rain = 0
KPD1 200350Z 17012KT 32/13 A2992 RMK A01 T03210129  RH  031%=      5-min Rain = 0
KPD1 200351Z 18012G17KT 32/13 A2992 RMK A01 T03210130  RH  031%=      5-min Rain = 0
KPD1 200352Z 17009G15KT 32/13 A2992 RMK A01 T03200129  RH  031%=      5-min Rain = 0
KPD1 200353Z 18009G16KT 32/13 A2992 RMK A01 T03200129  RH  031%=      5-min Rain = 0
KPD1 200354Z 17010G15KT 32/13 A2992 RMK A01 T03200130  RH  031%=      5-min Rain = 0
KPD1 200355Z 16013KT 32/13 A2992 RMK A01 T03200130  RH  031%=      5-min Rain = 0
KPD1 200356Z 17012KT 32/13 A2992 RMK A01 T03190129  RH  031%=      5-min Rain = 0
KPD1 200357Z 18009KT 32/13 A2992 RMK A01 T03190129  RH  032%=      5-min Rain = 0
KPD1 200358Z 17007KT 32/13 A2992 RMK A01 T03190130  RH  032%=      5-min Rain = 0
KPD1 200359Z 17011KT 32/13 A2992 RMK A01 T03180129  RH  032%=      5-min Rain = 0
KPD1 200400Z 17011KT 32/13 A2992 RMK A01 T03170129  RH  032%=      5-min Rain = 0
KPD1 200401Z 17011KT 32/13 A2992 RMK A01 T03170129  RH  032%=      5-min Rain = 0
KPD1 200402Z 17011KT 32/13 A2992 RMK A01 T03160129  RH  032%=      5-min Rain = 0
KPD1 200403Z 17011KT 32/13 A2992 RMK A01 T03160129  RH  032%=      5-min Rain = 0
KPD1 200404Z 18009KT 32/13 A2992 RMK A01 T03170130  RH  032%=      5-min Rain = 0
KPD1 200405Z 17008KT 32/13 A2992 RMK A01 T03170130  RH  032%=      5-min Rain = 0
KPD1 200406Z 17008G13KT 32/13 A2992 RMK A01 T03160130  RH  032%=      5-min Rain = 0
KPD1 200407Z 18015KT 32/13 A2993 RMK A01 T03150129  RH  032%=      5-min Rain = 0
KPD1 200408Z 18012KT 32/13 A2993 RMK A01 T03150130  RH  032%=      5-min Rain = 0
KPD1 200409Z 17010G15KT 32/13 A2993 RMK A01 T03160130  RH  032%=      5-min Rain = 0
KPD1 200410Z 17011G18KT 32/13 A2993 RMK A01 T03160130  RH  032%=      5-min Rain = 0
KPD1 200411Z 17012G17KT 32/13 A2993 RMK A01 T03160131  RH  032%=      5-min Rain = 0
KPD1 200412Z 17012KT 32/13 A2993 RMK A01 T03160130  RH  032%=      5-min Rain = 0
KPD1 200413Z 18012KT 32/13 A2993 RMK A01 T03150130  RH  032%=      5-min Rain = 0
KPD1 200414Z 17012KT 32/13 A2993 RMK A01 T03150130  RH  032%=      5-min Rain = 0
KPD1 200415Z 17012G17KT 32/13 A2993 RMK A01 T03150130  RH  032%=      5-min Rain = 0
KPD1 200416Z 18010KT 32/13 A2993 RMK A01 T03150130  RH  032%=      5-min Rain = 0
KPD1 200417Z 17013KT 32/13 A2993 RMK A01 T03150131  RH  032%=      5-min Rain = 0
KPD1 200418Z 17014G19KT 31/13 A2993 RMK A01 T03140131  RH  033%=      5-min Rain = 0
KPD1 200419Z 17014KT 31/13 A2993 RMK A01 T03140130  RH  033%=      5-min Rain = 0
KPD1 200420Z 18014KT 32/13 A2993 RMK A01 T03150131  RH  033%=      5-min Rain = 0
KPD1 200421Z 18012G18KT 31/13 A2993 RMK A01 T03140130  RH  033%=      5-min Rain = 0
KPD1 200422Z 17014KT 31/13 A2993 RMK A01 T03140130  RH  033%=      5-min Rain = 0
KPD1 200423Z 17011G16KT 31/13 A2993 RMK A01 T03140130  RH  033%=      5-min Rain = 0
KPD1 200424Z 18016KT 31/13 A2993 RMK A01 T03130130  RH  033%=      5-min Rain = 0
KPD1 200425Z 17014KT 31/13 A2993 RMK A01 T03140131  RH  033%=      5-min Rain = 0
KPD1 200426Z 17014G26KT 32/13 A2993 RMK A01 T03150131  RH  033%=      5-min Rain = 0
KPD1 200427Z 17015G22KT 32/13 A2993 RMK A01 T03150131  RH  033%=      5-min Rain = 0
KPD1 200428Z 17012G18KT 32/13 A2993 RMK A01 T03150131  RH  032%=      5-min Rain = 0
KPD1 200429Z 17015G20KT 32/13 A2993 RMK A01 T03160131  RH  033%=      5-min Rain = 0
KPD1 200430Z 17014KT 32/13 A2993 RMK A01 T03160132  RH  033%=      5-min Rain = 0
KPD1 200431Z 17009G15KT 32/13 A2993 RMK A01 T03160132  RH  033%=      5-min Rain = 0
KPD1 200432Z 17010G16KT 32/13 A2994 RMK A01 T03150132  RH  033%=      5-min Rain = 0
KPD1 200433Z 17011KT 31/13 A2993 RMK A01 T03140131  RH  033%=      5-min Rain = 0
KPD1 200434Z 17013KT 31/13 A2994 RMK A01 T03130131  RH  033%=      5-min Rain = 0
KPD1 200435Z 18010G16KT 31/13 A2994 RMK A01 T03130131  RH  033%=      5-min Rain = 0
KPD1 200436Z 17010KT 31/13 A2994 RMK A01 T03130131  RH  033%=      5-min Rain = 0
KPD1 200437Z 17013KT 31/13 A2994 RMK A01 T03140133  RH  033%=      5-min Rain = 0
KPD1 200438Z 17015G22KT 31/13 A2994 RMK A01 T03130132  RH  033%=      5-min Rain = 0
KPD1 200439Z 16014G19KT 31/13 A2994 RMK A01 T03130131  RH  033%=      5-min Rain = 0
KPD1 200440Z 18012KT 31/13 A2994 RMK A01 T03140132  RH  033%=      5-min Rain = 0
KPD1 200441Z 16014G19KT 31/13 A2994 RMK A01 T03140132  RH  033%=      5-min Rain = 0
KPD1 200442Z 17012G18KT 31/13 A2994 RMK A01 T03130132  RH  033%=      5-min Rain = 0
KPD1 200443Z 18014KT 31/13 A2994 RMK A01 T03130132  RH  033%=      5-min Rain = 0
KPD1 200444Z 18012KT 31/13 A2994 RMK A01 T03120132  RH  033%=      5-min Rain = 0
KPD1 200445Z 18010KT 31/13 A2994 RMK A01 T03120132  RH  033%=      5-min Rain = 0
KPD1 200446Z 17011KT 31/13 A2994 RMK A01 T03120133  RH  033%=      5-min Rain = 0
KPD1 200447Z 17009KT 31/13 A2994 RMK A01 T03120133  RH  034%=      5-min Rain = 0
KPD1 200448Z 16010G17KT 31/13 A2994 RMK A01 T03100132  RH  034%=      5-min Rain = 0
KPD1 200449Z 17012KT 31/13 A2994 RMK A01 T03100132  RH  034%=      5-min Rain = 0
KPD1 200450Z 17010KT 31/13 A2994 RMK A01 T03090132  RH  034%=      5-min Rain = 0
KPD1 200451Z 16009KT 31/13 A2994 RMK A01 T03080132  RH  034%=      5-min Rain = 0
KPD1 200452Z 16009KT 31/13 A2994 RMK A01 T03080132  RH  034%=      5-min Rain = 0
KPD1 200453Z 17010KT 31/13 A2994 RMK A01 T03070133  RH  034%=      5-min Rain = 0
KPD1 200454Z 17010KT 31/13 A2994 RMK A01 T03060132  RH  035%=      5-min Rain = 0
KPD1 200455Z 17008KT 31/13 A2994 RMK A01 T03060133  RH  035%=      5-min Rain = 0
KPD1 200456Z 17012KT 31/13 A2994 RMK A01 T03060133  RH  035%=      5-min Rain = 0
KPD1 200457Z 17012KT 31/13 A2994 RMK A01 T03050133  RH  035%=      5-min Rain = 0
KPD1 200458Z 17010KT 31/13 A2994 RMK A01 T03050132  RH  035%=      5-min Rain = 0
KPD1 200459Z 16008KT 30/13 A2994 RMK A01 T03040132  RH  035%=      5-min Rain = 0

Page generated in 0.1822 seconds.